Observation data for Coyanosa on 09/12/2017      Previous  Date  Next       Current Mesonet Observations  Soil Data  Daily Summary Page  Observations in Plain Language
KCO1 120500Z 17006KT 21/08 A3009 RMK A01 T02100081  RH  043%=      5-min Rain = 0
KCO1 120501Z 17006KT 21/08 A3009 RMK A01 T02090080  RH  043%=      5-min Rain = 0
KCO1 120502Z 17006KT 21/08 A3009 RMK A01 T02090080  RH  043%=      5-min Rain = 0
KCO1 120503Z 17005KT 21/08 A3009 RMK A01 T02090080  RH  044%=      5-min Rain = 0
KCO1 120504Z 17005KT 21/08 A3009 RMK A01 T02080080  RH  044%=      5-min Rain = 0
KCO1 120505Z 17005KT 21/08 A3009 RMK A01 T02080080  RH  044%=      5-min Rain = 0
KCO1 120506Z 17005KT 21/08 A3009 RMK A01 T02070080  RH  044%=      5-min Rain = 0
KCO1 120507Z 17006KT 21/08 A3009 RMK A01 T02070080  RH  044%=      5-min Rain = 0
KCO1 120508Z 17006KT 21/08 A3009 RMK A01 T02060080  RH  044%=      5-min Rain = 0
KCO1 120509Z 17005KT 21/08 A3009 RMK A01 T02060079  RH  044%=      5-min Rain = 0
KCO1 120510Z 17006KT 21/08 A3009 RMK A01 T02060079  RH  044%=      5-min Rain = 0
KCO1 120511Z 17006KT 21/08 A3009 RMK A01 T02070079  RH  044%=      5-min Rain = 0
KCO1 120512Z 17005KT 21/08 A3009 RMK A01 T02060079  RH  044%=      5-min Rain = 0
KCO1 120513Z 17005KT 21/08 A3009 RMK A01 T02060079  RH  044%=      5-min Rain = 0
KCO1 120514Z 17006KT 21/08 A3009 RMK A01 T02060079  RH  044%=      5-min Rain = 0
KCO1 120515Z 17006KT 21/08 A3009 RMK A01 T02060078  RH  044%=      5-min Rain = 0
KCO1 120516Z 17006KT 21/08 A3009 RMK A01 T02070078  RH  044%=      5-min Rain = 0
KCO1 120517Z 17006KT 21/08 A3009 RMK A01 T02060078  RH  043%=      5-min Rain = 0
KCO1 120518Z 17006KT 21/08 A3009 RMK A01 T02060078  RH  044%=      5-min Rain = 0
KCO1 120519Z 17006KT 21/08 A3009 RMK A01 T02060079  RH  044%=      5-min Rain = 0
KCO1 120520Z 17006KT 21/08 A3009 RMK A01 T02070079  RH  044%=      5-min Rain = 0
KCO1 120521Z 17006KT 21/08 A3009 RMK A01 T02060078  RH  044%=      5-min Rain = 0
KCO1 120522Z 17006KT 21/08 A3009 RMK A01 T02060078  RH  044%=      5-min Rain = 0
KCO1 120523Z 17006KT 21/08 A3009 RMK A01 T02060079  RH  044%=      5-min Rain = 0
KCO1 120524Z 17006KT 21/08 A3009 RMK A01 T02050078  RH  044%=      5-min Rain = 0
KCO1 120525Z 17006KT 21/08 A3009 RMK A01 T02050079  RH  044%=      5-min Rain = 0
KCO1 120526Z 17006KT 21/08 A3009 RMK A01 T02050079  RH  044%=      5-min Rain = 0
KCO1 120527Z 17006KT 20/08 A3009 RMK A01 T02040079  RH  044%=      5-min Rain = 0
KCO1 120528Z 17006KT 20/08 A3009 RMK A01 T02040079  RH  045%=      5-min Rain = 0
KCO1 120529Z 17006KT 20/08 A3009 RMK A01 T02040080  RH  045%=      5-min Rain = 0
KCO1 120530Z 17006KT 20/08 A3009 RMK A01 T02030080  RH  045%=      5-min Rain = 0
KCO1 120531Z 17006KT 20/08 A3008 RMK A01 T02030080  RH  045%=      5-min Rain = 0
KCO1 120532Z 17006KT 20/08 A3008 RMK A01 T02030080  RH  045%=      5-min Rain = 0
KCO1 120533Z 17006KT 20/08 A3008 RMK A01 T02020081  RH  046%=      5-min Rain = 0
KCO1 120534Z 17006KT 20/08 A3008 RMK A01 T02010081  RH  046%=      5-min Rain = 0
KCO1 120535Z 17006KT 20/08 A3008 RMK A01 T02010081  RH  046%=      5-min Rain = 0
KCO1 120536Z 17006KT 20/08 A3008 RMK A01 T02010081  RH  046%=      5-min Rain = 0
KCO1 120537Z 17006KT 20/08 A3008 RMK A01 T02010081  RH  046%=      5-min Rain = 0
KCO1 120538Z 17006KT 20/08 A3008 RMK A01 T02000080  RH  046%=      5-min Rain = 0
KCO1 120539Z 17006KT 20/08 A3008 RMK A01 T02000080  RH  046%=      5-min Rain = 0
KCO1 120540Z 17006KT 20/08 A3008 RMK A01 T02010080  RH  046%=      5-min Rain = 0
KCO1 120541Z 17006KT 20/08 A3008 RMK A01 T02000079  RH  046%=      5-min Rain = 0
KCO1 120542Z 17006KT 20/08 A3008 RMK A01 T02000079  RH  045%=      5-min Rain = 0
KCO1 120543Z 17006KT 20/08 A3008 RMK A01 T02010079  RH  045%=      5-min Rain = 0
KCO1 120544Z 17006KT 20/08 A3008 RMK A01 T02010079  RH  045%=      5-min Rain = 0
KCO1 120545Z 17005KT 20/08 A3008 RMK A01 T02010078  RH  045%=      5-min Rain = 0
KCO1 120546Z 17005KT 20/08 A3008 RMK A01 T02010079  RH  045%=      5-min Rain = 0
KCO1 120547Z 17005KT 20/08 A3008 RMK A01 T02010079  RH  045%=      5-min Rain = 0
KCO1 120548Z 17005KT 20/08 A3008 RMK A01 T02010079  RH  045%=      5-min Rain = 0
KCO1 120549Z 17005KT 20/08 A3008 RMK A01 T02010079  RH  045%=      5-min Rain = 0
KCO1 120550Z 17006KT 20/08 A3008 RMK A01 T02000079  RH  045%=      5-min Rain = 0
KCO1 120551Z 18006KT 20/08 A3008 RMK A01 T02000079  RH  045%=      5-min Rain = 0
KCO1 120552Z 18006KT 20/08 A3008 RMK A01 T02000079  RH  045%=      5-min Rain = 0
KCO1 120553Z 18006KT 20/08 A3008 RMK A01 T02000079  RH  045%=      5-min Rain = 0
KCO1 120554Z 18006KT 20/08 A3008 RMK A01 T02000079  RH  046%=      5-min Rain = 0
KCO1 120555Z 18006KT 20/08 A3008 RMK A01 T02000079  RH  046%=      5-min Rain = 0
KCO1 120556Z 18006KT 20/08 A3008 RMK A01 T02000079  RH  046%=      5-min Rain = 0
KCO1 120557Z 18006KT 20/08 A3008 RMK A01 T02000080  RH  046%=      5-min Rain = 0
KCO1 120558Z 18006KT 20/08 A3008 RMK A01 T02000080  RH  046%=      5-min Rain = 0
KCO1 120559Z 18006KT 20/08 A3008 RMK A01 T02000079  RH  046%=      5-min Rain = 0
KCO1 120600Z 18006KT 20/08 A3008 RMK A01 T02000079  RH  046%=      5-min Rain = 0
KCO1 120601Z 18006KT 20/08 A3008 RMK A01 T02000079  RH  045%=      5-min Rain = 0
KCO1 120602Z 18006KT 20/08 A3008 RMK A01 T02010079  RH  045%=      5-min Rain = 0
KCO1 120603Z 18006KT 20/08 A3008 RMK A01 T02010078  RH  045%=      5-min Rain = 0
KCO1 120604Z 18006KT 20/08 A3008 RMK A01 T02010078  RH  045%=      5-min Rain = 0
KCO1 120605Z 18006KT 20/08 A3008 RMK A01 T02010078  RH  045%=      5-min Rain = 0
KCO1 120606Z 18006KT 20/08 A3008 RMK A01 T02010078  RH  045%=      5-min Rain = 0
KCO1 120607Z 18006KT 20/08 A3008 RMK A01 T02010078  RH  045%=      5-min Rain = 0
KCO1 120608Z 18006KT 20/08 A3008 RMK A01 T02010078  RH  045%=      5-min Rain = 0
KCO1 120609Z 18006KT 20/08 A3008 RMK A01 T02000078  RH  045%=      5-min Rain = 0
KCO1 120610Z 18006KT 20/08 A3008 RMK A01 T02000078  RH  045%=      5-min Rain = 0
KCO1 120611Z 18006KT 20/08 A3008 RMK A01 T02000078  RH  045%=      5-min Rain = 0
KCO1 120612Z 18006KT 20/08 A3008 RMK A01 T02000078  RH  045%=      5-min Rain = 0
KCO1 120613Z 19006KT 20/08 A3008 RMK A01 T02000078  RH  045%=      5-min Rain = 0
KCO1 120614Z 19005KT 20/08 A3008 RMK A01 T02010078  RH  045%=      5-min Rain = 0
KCO1 120615Z 20003KT 20/08 A3008 RMK A01 T02000078  RH  045%=      5-min Rain = 0
KCO1 120616Z 21001KT 20/08 A3008 RMK A01 T02000076  RH  045%=      5-min Rain = 0
KCO1 120617Z 03001KT 20/08 A3008 RMK A01 T02000076  RH  045%=      5-min Rain = 0
KCO1 120618Z 02001KT 20/08 A3008 RMK A01 T01990075  RH  045%=      5-min Rain = 0
KCO1 120619Z 16001KT 20/08 A3008 RMK A01 T01980075  RH  045%=      5-min Rain = 0
KCO1 120620Z 20002KT 20/08 A3008 RMK A01 T01990076  RH  045%=      5-min Rain = 0
KCO1 120621Z 02002KT 20/08 A3008 RMK A01 T02020076  RH  044%=      5-min Rain = 0
KCO1 120622Z 03005KT 20/07 A3008 RMK A01 T02040074  RH  043%=      5-min Rain = 0
KCO1 120623Z 02005KT 20/07 A3008 RMK A01 T02040070  RH  042%=      5-min Rain = 0
KCO1 120624Z 04003KT 20/07 A3008 RMK A01 T02030072  RH  043%=      5-min Rain = 0
KCO1 120625Z 06006KT 21/07 A3008 RMK A01 T02060074  RH  042%=      5-min Rain = 0
KCO1 120626Z 07006KT 21/07 A3008 RMK A01 T02070074  RH  042%=      5-min Rain = 0
KCO1 120627Z 10004KT 21/07 A3008 RMK A01 T02070073  RH  042%=      5-min Rain = 0
KCO1 120628Z 11003KT 21/07 A3008 RMK A01 T02050074  RH  043%=      5-min Rain = 0
KCO1 120629Z 07004KT 20/07 A3008 RMK A01 T02040074  RH  043%=      5-min Rain = 0
KCO1 120630Z 08006KT 20/07 A3008 RMK A01 T02040074  RH  043%=      5-min Rain = 0
KCO1 120631Z 09005KT 20/08 A3008 RMK A01 T02030075  RH  043%=      5-min Rain = 0
KCO1 120632Z 10004KT 20/08 A3008 RMK A01 T02030075  RH  043%=      5-min Rain = 0
KCO1 120633Z 10003KT 20/08 A3008 RMK A01 T02040075  RH  043%=      5-min Rain = 0
KCO1 120634Z 07004KT 20/08 A3008 RMK A01 T02030075  RH  043%=      5-min Rain = 0
KCO1 120635Z 07005KT 20/08 A3008 RMK A01 T02040075  RH  043%=      5-min Rain = 0
KCO1 120636Z 08003KT 20/07 A3008 RMK A01 T02040074  RH  043%=      5-min Rain = 0
KCO1 120637Z 07003KT 20/07 A3008 RMK A01 T02040074  RH  043%=      5-min Rain = 0
KCO1 120638Z 07003KT 20/07 A3008 RMK A01 T02040074  RH  043%=      5-min Rain = 0
KCO1 120639Z 06003KT 20/07 A3008 RMK A01 T02040074  RH  043%=      5-min Rain = 0
KCO1 120640Z 07003KT 20/07 A3008 RMK A01 T02040074  RH  043%=      5-min Rain = 0
KCO1 120641Z 08002KT 20/07 A3008 RMK A01 T02040074  RH  043%=      5-min Rain = 0
KCO1 120642Z 08002KT 20/07 A3008 RMK A01 T02040074  RH  043%=      5-min Rain = 0
KCO1 120643Z 08003KT 20/07 A3008 RMK A01 T02030074  RH  043%=      5-min Rain = 0
KCO1 120644Z 08002KT 20/07 A3008 RMK A01 T02030074  RH  043%=      5-min Rain = 0
KCO1 120645Z 08003KT 20/07 A3008 RMK A01 T02020074  RH  043%=      5-min Rain = 0
KCO1 120646Z 08002KT 20/07 A3008 RMK A01 T02010074  RH  044%=      5-min Rain = 0
KCO1 120647Z 08002KT 20/07 A3008 RMK A01 T02000074  RH  044%=      5-min Rain = 0
KCO1 120648Z 08002KT 20/07 A3008 RMK A01 T01990074  RH  044%=      5-min Rain = 0
KCO1 120649Z 08001KT 20/07 A3008 RMK A01 T01990074  RH  044%=      5-min Rain = 0
KCO1 120650Z 09001KT 20/07 A3008 RMK A01 T01980074  RH  045%=      5-min Rain = 0
KCO1 120651Z 10001KT 20/07 A3008 RMK A01 T01980074  RH  045%=      5-min Rain = 0
KCO1 120652Z 11002KT 20/07 A3008 RMK A01 T01980074  RH  045%=      5-min Rain = 0
KCO1 120653Z 11002KT 20/08 A3008 RMK A01 T01980075  RH  045%=      5-min Rain = 0
KCO1 120654Z 12001KT 20/08 A3008 RMK A01 T01980075  RH  045%=      5-min Rain = 0
KCO1 120655Z 12001KT 20/08 A3008 RMK A01 T01980075  RH  045%=      5-min Rain = 0
KCO1 120656Z 13001KT 20/07 A3008 RMK A01 T01990074  RH  045%=      5-min Rain = 0
KCO1 120657Z 13002KT 20/08 A3007 RMK A01 T01980075  RH  045%=      5-min Rain = 0
KCO1 120658Z 14002KT 20/08 A3007 RMK A01 T01990075  RH  045%=      5-min Rain = 0
KCO1 120659Z 14002KT 20/07 A3007 RMK A01 T01980074  RH  044%=      5-min Rain = 0
KCO1 120700Z 14002KT 20/07 A3007 RMK A01 T01980073  RH  044%=      5-min Rain = 0
KCO1 120701Z 14002KT 20/07 A3007 RMK A01 T01970072  RH  044%=      5-min Rain = 0
KCO1 120702Z 14003KT 20/07 A3007 RMK A01 T01970072  RH  044%=      5-min Rain = 0
KCO1 120703Z 14003KT 20/07 A3007 RMK A01 T01960072  RH  045%=      5-min Rain = 0
KCO1 120704Z 15003KT 20/07 A3007 RMK A01 T01950072  RH  045%=      5-min Rain = 0
KCO1 120705Z 14003KT 20/07 A3007 RMK A01 T01950072  RH  045%=      5-min Rain = 0
KCO1 120706Z 14003KT 19/07 A3007 RMK A01 T01940071  RH  045%=      5-min Rain = 0
KCO1 120707Z 14003KT 19/07 A3007 RMK A01 T01940071  RH  045%=      5-min Rain = 0
KCO1 120708Z 13003KT 19/07 A3007 RMK A01 T01920071  RH  045%=      5-min Rain = 0
KCO1 120709Z 13003KT 19/07 A3007 RMK A01 T01920071  RH  045%=      5-min Rain = 0
KCO1 120710Z 13003KT 19/07 A3007 RMK A01 T01920071  RH  045%=      5-min Rain = 0
KCO1 120711Z 13003KT 19/07 A3007 RMK A01 T01920071  RH  045%=      5-min Rain = 0
KCO1 120712Z 13003KT 19/07 A3007 RMK A01 T01930071  RH  045%=      5-min Rain = 0
KCO1 120713Z 14003KT 19/07 A3007 RMK A01 T01930071  RH  045%=      5-min Rain = 0
KCO1 120714Z 14003KT 19/07 A3007 RMK A01 T01920070  RH  045%=      5-min Rain = 0
KCO1 120715Z 15003KT 19/07 A3007 RMK A01 T01910070  RH  045%=      5-min Rain = 0
KCO1 120716Z 15003KT 19/07 A3007 RMK A01 T01900070  RH  045%=      5-min Rain = 0
KCO1 120717Z 16003KT 19/07 A3007 RMK A01 T01890069  RH  046%=      5-min Rain = 0
KCO1 120718Z 17004KT 19/07 A3007 RMK A01 T01880070  RH  046%=      5-min Rain = 0
KCO1 120719Z 17004KT 19/07 A3007 RMK A01 T01870070  RH  046%=      5-min Rain = 0
KCO1 120720Z 18004KT 19/07 A3007 RMK A01 T01870071  RH  047%=      5-min Rain = 0
KCO1 120721Z 18005KT 19/07 A3007 RMK A01 T01870073  RH  047%=      5-min Rain = 0
KCO1 120722Z 18005KT 19/07 A3007 RMK A01 T01880072  RH  047%=      5-min Rain = 0
KCO1 120723Z 18005KT 19/07 A3007 RMK A01 T01880072  RH  047%=      5-min Rain = 0
KCO1 120724Z 18006KT 19/07 A3007 RMK A01 T01880073  RH  047%=      5-min Rain = 0
KCO1 120725Z 18006KT 19/07 A3007 RMK A01 T01880074  RH  048%=      5-min Rain = 0
KCO1 120726Z 18006KT 19/08 A3007 RMK A01 T01870075  RH  048%=      5-min Rain = 0
KCO1 120727Z 18006KT 19/08 A3007 RMK A01 T01880075  RH  048%=      5-min Rain = 0
KCO1 120728Z 19005KT 19/08 A3007 RMK A01 T01880075  RH  048%=      5-min Rain = 0
KCO1 120729Z 19005KT 19/08 A3007 RMK A01 T01880075  RH  048%=      5-min Rain = 0
KCO1 120730Z 19006KT 19/08 A3007 RMK A01 T01880077  RH  048%=      5-min Rain = 0
KCO1 120731Z 19005KT 19/08 A3007 RMK A01 T01880077  RH  048%=      5-min Rain = 0
KCO1 120732Z 19005KT 19/08 A3007 RMK A01 T01880077  RH  049%=      5-min Rain = 0
KCO1 120733Z 20005KT 19/08 A3007 RMK A01 T01880077  RH  049%=      5-min Rain = 0
KCO1 120734Z 20004KT 19/08 A3007 RMK A01 T01880077  RH  049%=      5-min Rain = 0
KCO1 120735Z 19004KT 19/08 A3007 RMK A01 T01870076  RH  048%=      5-min Rain = 0
KCO1 120736Z 19005KT 19/08 A3007 RMK A01 T01870075  RH  048%=      5-min Rain = 0
KCO1 120737Z 19005KT 19/08 A3007 RMK A01 T01860075  RH  048%=      5-min Rain = 0
KCO1 120738Z 20005KT 19/07 A3007 RMK A01 T01860074  RH  048%=      5-min Rain = 0
KCO1 120739Z 20005KT 19/07 A3007 RMK A01 T01850074  RH  048%=      5-min Rain = 0
KCO1 120740Z 19005KT 19/08 A3007 RMK A01 T01850075  RH  048%=      5-min Rain = 0
KCO1 120741Z 19005KT 19/07 A3007 RMK A01 T01850074  RH  049%=      5-min Rain = 0
KCO1 120742Z 19005KT 18/07 A3007 RMK A01 T01840074  RH  049%=      5-min Rain = 0
KCO1 120743Z 19005KT 18/07 A3007 RMK A01 T01840074  RH  049%=      5-min Rain = 0
KCO1 120744Z 19005KT 18/07 A3007 RMK A01 T01830074  RH  049%=      5-min Rain = 0
KCO1 120745Z 19004KT 18/07 A3007 RMK A01 T01840074  RH  049%=      5-min Rain = 0
KCO1 120746Z 19005KT 18/07 A3007 RMK A01 T01830074  RH  049%=      5-min Rain = 0
KCO1 120747Z 19004KT 18/07 A3007 RMK A01 T01830074  RH  049%=      5-min Rain = 0
KCO1 120748Z 19004KT 18/07 A3007 RMK A01 T01840074  RH  049%=      5-min Rain = 0
KCO1 120749Z 20004KT 19/07 A3007 RMK A01 T01850074  RH  049%=      5-min Rain = 0
KCO1 120750Z 20004KT 19/08 A3007 RMK A01 T01860075  RH  048%=      5-min Rain = 0
KCO1 120751Z 19004KT 19/08 A3007 RMK A01 T01860075  RH  048%=      5-min Rain = 0
KCO1 120752Z 19004KT 19/08 A3007 RMK A01 T01850075  RH  049%=      5-min Rain = 0
KCO1 120753Z 19004KT 19/08 A3007 RMK A01 T01850076  RH  049%=      5-min Rain = 0
KCO1 120754Z 19004KT 18/08 A3007 RMK A01 T01840076  RH  049%=      5-min Rain = 0
KCO1 120755Z 19004KT 19/08 A3007 RMK A01 T01850076  RH  049%=      5-min Rain = 0
KCO1 120756Z 20003KT 19/08 A3007 RMK A01 T01860076  RH  049%=      5-min Rain = 0
KCO1 120757Z 21003KT 19/08 A3007 RMK A01 T01860076  RH  049%=      5-min Rain = 0
KCO1 120758Z 20003KT 19/08 A3007 RMK A01 T01860076  RH  049%=      5-min Rain = 0
KCO1 120759Z 20004KT 19/08 A3007 RMK A01 T01850075  RH  049%=      5-min Rain = 0
KCO1 120800Z 20004KT 19/08 A3007 RMK A01 T01860075  RH  049%=      5-min Rain = 0
KCO1 120801Z 20004KT 19/07 A3007 RMK A01 T01860074  RH  048%=      5-min Rain = 0
KCO1 120802Z 20003KT 19/07 A3007 RMK A01 T01860074  RH  048%=      5-min Rain = 0
KCO1 120803Z 21003KT 19/07 A3007 RMK A01 T01870074  RH  048%=      5-min Rain = 0
KCO1 120804Z 21003KT 19/07 A3007 RMK A01 T01870074  RH  048%=      5-min Rain = 0
KCO1 120805Z 20003KT 19/07 A3007 RMK A01 T01860074  RH  048%=      5-min Rain = 0
KCO1 120806Z 21003KT 19/07 A3007 RMK A01 T01860074  RH  048%=      5-min Rain = 0
KCO1 120807Z 20003KT 19/08 A3007 RMK A01 T01860075  RH  048%=      5-min Rain = 0
KCO1 120808Z 19003KT 19/07 A3007 RMK A01 T01850074  RH  048%=      5-min Rain = 0
KCO1 120809Z 20003KT 18/07 A3007 RMK A01 T01840073  RH  048%=      5-min Rain = 0
KCO1 120810Z 19003KT 19/07 A3007 RMK A01 T01850073  RH  048%=      5-min Rain = 0
KCO1 120811Z 19003KT 19/07 A3007 RMK A01 T01850073  RH  048%=      5-min Rain = 0
KCO1 120812Z 19003KT 19/07 A3007 RMK A01 T01850074  RH  048%=      5-min Rain = 0
KCO1 120813Z 19004KT 18/07 A3007 RMK A01 T01840074  RH  048%=      5-min Rain = 0
KCO1 120814Z 18004KT 18/07 A3007 RMK A01 T01840074  RH  048%=      5-min Rain = 0
KCO1 120815Z 17004KT 18/07 A3007 RMK A01 T01830073  RH  049%=      5-min Rain = 0
KCO1 120816Z 18004KT 18/07 A3007 RMK A01 T01830073  RH  049%=      5-min Rain = 0
KCO1 120817Z 18004KT 18/07 A3007 RMK A01 T01820074  RH  049%=      5-min Rain = 0
KCO1 120818Z 18005KT 18/07 A3007 RMK A01 T01810074  RH  049%=      5-min Rain = 0
KCO1 120819Z 18005KT 18/07 A3006 RMK A01 T01810074  RH  050%=      5-min Rain = 0
KCO1 120820Z 18005KT 18/07 A3006 RMK A01 T01810074  RH  050%=      5-min Rain = 0
KCO1 120821Z 18005KT 18/07 A3006 RMK A01 T01800074  RH  050%=      5-min Rain = 0
KCO1 120822Z 18005KT 18/07 A3006 RMK A01 T01800074  RH  050%=      5-min Rain = 0
KCO1 120823Z 18004KT 18/08 A3006 RMK A01 T01800075  RH  050%=      5-min Rain = 0
KCO1 120824Z 19004KT 18/08 A3006 RMK A01 T01800075  RH  050%=      5-min Rain = 0
KCO1 120825Z 19004KT 18/08 A3006 RMK A01 T01800075  RH  050%=      5-min Rain = 0
KCO1 120826Z 19004KT 18/08 A3006 RMK A01 T01800076  RH  050%=      5-min Rain = 0
KCO1 120827Z 19004KT 18/08 A3006 RMK A01 T01800076  RH  051%=      5-min Rain = 0
KCO1 120828Z 19004KT 18/08 A3006 RMK A01 T01800076  RH  051%=      5-min Rain = 0
KCO1 120829Z 20004KT 18/08 A3006 RMK A01 T01800076  RH  051%=      5-min Rain = 0
KCO1 120830Z 20003KT 18/07 A3006 RMK A01 T01790074  RH  050%=      5-min Rain = 0
KCO1 120831Z 20003KT 18/07 A3006 RMK A01 T01790073  RH  050%=      5-min Rain = 0
KCO1 120832Z 20003KT 18/07 A3006 RMK A01 T01790073  RH  050%=      5-min Rain = 0
KCO1 120833Z 20002KT 18/07 A3006 RMK A01 T01790073  RH  050%=      5-min Rain = 0
KCO1 120834Z 20003KT 18/07 A3006 RMK A01 T01790073  RH  050%=      5-min Rain = 0
KCO1 120835Z 19003KT 18/08 A3006 RMK A01 T01790075  RH  050%=      5-min Rain = 0
KCO1 120836Z 20003KT 18/07 A3006 RMK A01 T01790074  RH  050%=      5-min Rain = 0
KCO1 120837Z 20003KT 18/08 A3006 RMK A01 T01790075  RH  050%=      5-min Rain = 0
KCO1 120838Z 20003KT 18/08 A3006 RMK A01 T01790075  RH  050%=      5-min Rain = 0
KCO1 120839Z 20003KT 18/08 A3006 RMK A01 T01800075  RH  050%=      5-min Rain = 0
KCO1 120840Z 20003KT 18/08 A3006 RMK A01 T01800075  RH  050%=      5-min Rain = 0
KCO1 120841Z 20003KT 18/08 A3006 RMK A01 T01800075  RH  050%=      5-min Rain = 0
KCO1 120842Z 20003KT 18/08 A3006 RMK A01 T01800075  RH  050%=      5-min Rain = 0
KCO1 120843Z 20002KT 18/08 A3006 RMK A01 T01800076  RH  051%=      5-min Rain = 0
KCO1 120844Z 20002KT 18/08 A3006 RMK A01 T01800076  RH  051%=      5-min Rain = 0
KCO1 120845Z 21001KT 18/08 A3006 RMK A01 T01790076  RH  051%=      5-min Rain = 0
KCO1 120846Z 21002KT 18/08 A3006 RMK A01 T01780076  RH  051%=      5-min Rain = 0
KCO1 120847Z 20002KT 18/08 A3006 RMK A01 T01780076  RH  051%=      5-min Rain = 0
KCO1 120848Z 21002KT 18/08 A3006 RMK A01 T01780075  RH  051%=      5-min Rain = 0
KCO1 120849Z 22002KT 18/08 A3006 RMK A01 T01770075  RH  051%=      5-min Rain = 0
KCO1 120850Z 22002KT 18/08 A3006 RMK A01 T01770075  RH  051%=      5-min Rain = 0
KCO1 120851Z 22003KT 18/08 A3006 RMK A01 T01770075  RH  051%=      5-min Rain = 0
KCO1 120852Z 22004KT 18/07 A3006 RMK A01 T01770074  RH  051%=      5-min Rain = 0
KCO1 120853Z 22005KT 18/07 A3006 RMK A01 T01760074  RH  051%=      5-min Rain = 0
KCO1 120854Z 22005KT 18/07 A3006 RMK A01 T01770074  RH  051%=      5-min Rain = 0
KCO1 120855Z 22005KT 18/07 A3006 RMK A01 T01770073  RH  051%=      5-min Rain = 0
KCO1 120856Z 22005KT 18/07 A3006 RMK A01 T01770072  RH  050%=      5-min Rain = 0
KCO1 120857Z 22004KT 18/07 A3006 RMK A01 T01770070  RH  050%=      5-min Rain = 0
KCO1 120858Z 22005KT 18/07 A3006 RMK A01 T01770070  RH  050%=      5-min Rain = 0
KCO1 120859Z 22005KT 18/07 A3006 RMK A01 T01780069  RH  049%=      5-min Rain = 0
KCO1 120900Z 22005KT 18/07 A3006 RMK A01 T01800069  RH  048%=      5-min Rain = 0
KCO1 120901Z 22005KT 18/07 A3006 RMK A01 T01830068  RH  047%=      5-min Rain = 0
KCO1 120902Z 23005KT 18/07 A3006 RMK A01 T01840068  RH  047%=      5-min Rain = 0
KCO1 120903Z 22005KT 19/07 A3006 RMK A01 T01850068  RH  046%=      5-min Rain = 0
KCO1 120904Z 22004KT 19/07 A3006 RMK A01 T01850068  RH  046%=      5-min Rain = 0
KCO1 120905Z 22005KT 19/07 A3006 RMK A01 T01850068  RH  046%=      5-min Rain = 0
KCO1 120906Z 22005KT 19/07 A3006 RMK A01 T01850067  RH  046%=      5-min Rain = 0
KCO1 120907Z 22005KT 19/07 A3006 RMK A01 T01850067  RH  046%=      5-min Rain = 0
KCO1 120908Z 22005KT 18/07 A3006 RMK A01 T01840067  RH  046%=      5-min Rain = 0
KCO1 120909Z 22005KT 18/07 A3006 RMK A01 T01830067  RH  046%=      5-min Rain = 0
KCO1 120910Z 22005KT 18/07 A3006 RMK A01 T01830067  RH  047%=      5-min Rain = 0
KCO1 120911Z 22005KT 18/07 A3006 RMK A01 T01820067  RH  047%=      5-min Rain = 0
KCO1 120912Z 22005KT 18/07 A3006 RMK A01 T01810066  RH  047%=      5-min Rain = 0
KCO1 120913Z 22005KT 18/07 A3006 RMK A01 T01810066  RH  047%=      5-min Rain = 0
KCO1 120914Z 22005KT 18/07 A3005 RMK A01 T01810066  RH  047%=      5-min Rain = 0
KCO1 120915Z 22005KT 18/07 A3005 RMK A01 T01810066  RH  047%=      5-min Rain = 0
KCO1 120916Z 22005KT 18/07 A3005 RMK A01 T01810066  RH  047%=      5-min Rain = 0
KCO1 120917Z 22005KT 18/07 A3005 RMK A01 T01810066  RH  047%=      5-min Rain = 0
KCO1 120918Z 22005KT 18/07 A3005 RMK A01 T01810066  RH  047%=      5-min Rain = 0
KCO1 120919Z 22005KT 18/07 A3005 RMK A01 T01810066  RH  047%=      5-min Rain = 0
KCO1 120920Z 22005KT 18/07 A3005 RMK A01 T01800065  RH  047%=      5-min Rain = 0
KCO1 120921Z 22004KT 18/07 A3005 RMK A01 T01810065  RH  047%=      5-min Rain = 0
KCO1 120922Z 22004KT 18/06 A3005 RMK A01 T01790064  RH  047%=      5-min Rain = 0
KCO1 120923Z 22004KT 18/06 A3005 RMK A01 T01790064  RH  047%=      5-min Rain = 0
KCO1 120924Z 21004KT 18/06 A3005 RMK A01 T01780063  RH  047%=      5-min Rain = 0
KCO1 120925Z 21004KT 18/06 A3005 RMK A01 T01770063  RH  047%=      5-min Rain = 0
KCO1 120926Z 21004KT 18/06 A3005 RMK A01 T01760063  RH  047%=      5-min Rain = 0
KCO1 120927Z 21004KT 18/06 A3005 RMK A01 T01760063  RH  047%=      5-min Rain = 0
KCO1 120928Z 21003KT 18/06 A3005 RMK A01 T01750063  RH  048%=      5-min Rain = 0
KCO1 120929Z 21003KT 18/06 A3005 RMK A01 T01750063  RH  048%=      5-min Rain = 0
KCO1 120930Z 21003KT 18/06 A3005 RMK A01 T01750063  RH  048%=      5-min Rain = 0
KCO1 120931Z 22003KT 18/06 A3005 RMK A01 T01750064  RH  048%=      5-min Rain = 0
KCO1 120932Z 22004KT 18/06 A3005 RMK A01 T01750064  RH  048%=      5-min Rain = 0
KCO1 120933Z 21004KT 18/06 A3005 RMK A01 T01750063  RH  048%=      5-min Rain = 0
KCO1 120934Z 22003KT 18/06 A3005 RMK A01 T01750064  RH  048%=      5-min Rain = 0
KCO1 120935Z 22004KT 18/06 A3005 RMK A01 T01750063  RH  048%=      5-min Rain = 0
KCO1 120936Z 22004KT 18/06 A3005 RMK A01 T01750063  RH  048%=      5-min Rain = 0
KCO1 120937Z 21004KT 17/06 A3005 RMK A01 T01740063  RH  048%=      5-min Rain = 0
KCO1 120938Z 21004KT 17/06 A3005 RMK A01 T01740064  RH  048%=      5-min Rain = 0
KCO1 120939Z 21003KT 17/06 A3005 RMK A01 T01740064  RH  048%=      5-min Rain = 0
KCO1 120940Z 21003KT 17/06 A3005 RMK A01 T01730064  RH  048%=      5-min Rain = 0
KCO1 120941Z 21003KT 17/06 A3005 RMK A01 T01730063  RH  048%=      5-min Rain = 0
KCO1 120942Z 21004KT 17/06 A3005 RMK A01 T01740064  RH  048%=      5-min Rain = 0
KCO1 120943Z 21003KT 17/06 A3005 RMK A01 T01730064  RH  049%=      5-min Rain = 0
KCO1 120944Z 21003KT 17/06 A3005 RMK A01 T01730064  RH  049%=      5-min Rain = 0
KCO1 120945Z 21003KT 17/06 A3005 RMK A01 T01730064  RH  049%=      5-min Rain = 0
KCO1 120946Z 21003KT 17/06 A3005 RMK A01 T01730064  RH  049%=      5-min Rain = 0
KCO1 120947Z 22003KT 17/07 A3005 RMK A01 T01730065  RH  049%=      5-min Rain = 0
KCO1 120948Z 21003KT 17/07 A3005 RMK A01 T01730065  RH  049%=      5-min Rain = 0
KCO1 120949Z 21003KT 17/07 A3005 RMK A01 T01740065  RH  049%=      5-min Rain = 0
KCO1 120950Z 21003KT 17/06 A3005 RMK A01 T01740064  RH  049%=      5-min Rain = 0
KCO1 120951Z 21004KT 17/06 A3005 RMK A01 T01730064  RH  049%=      5-min Rain = 0
KCO1 120952Z 20003KT 17/06 A3005 RMK A01 T01730064  RH  049%=      5-min Rain = 0
KCO1 120953Z 21003KT 17/07 A3005 RMK A01 T01720065  RH  049%=      5-min Rain = 0
KCO1 120954Z 21003KT 17/06 A3005 RMK A01 T01720064  RH  049%=      5-min Rain = 0
KCO1 120955Z 21003KT 17/06 A3005 RMK A01 T01720064  RH  049%=      5-min Rain = 0
KCO1 120956Z 21003KT 17/06 A3005 RMK A01 T01720064  RH  049%=      5-min Rain = 0
KCO1 120957Z 21003KT 17/06 A3005 RMK A01 T01720063  RH  049%=      5-min Rain = 0
KCO1 120958Z 22003KT 17/06 A3005 RMK A01 T01720064  RH  049%=      5-min Rain = 0
KCO1 120959Z 21003KT 17/06 A3005 RMK A01 T01720064  RH  049%=      5-min Rain = 0
KCO1 121000Z 21003KT 17/06 A3005 RMK A01 T01720064  RH  049%=      5-min Rain = 0
KCO1 121001Z 21003KT 17/07 A3005 RMK A01 T01720065  RH  049%=      5-min Rain = 0
KCO1 121002Z 21003KT 17/06 A3005 RMK A01 T01710064  RH  049%=      5-min Rain = 0
KCO1 121003Z 22003KT 17/06 A3005 RMK A01 T01710064  RH  049%=      5-min Rain = 0
KCO1 121004Z 22003KT 17/06 A3005 RMK A01 T01700064  RH  049%=      5-min Rain = 0
KCO1 121005Z 22003KT 17/06 A3005 RMK A01 T01700064  RH  049%=      5-min Rain = 0
KCO1 121006Z 23003KT 17/06 A3005 RMK A01 T01700063  RH  049%=      5-min Rain = 0
KCO1 121007Z 23003KT 17/06 A3005 RMK A01 T01700063  RH  049%=      5-min Rain = 0
KCO1 121008Z 24004KT 17/06 A3005 RMK A01 T01700063  RH  049%=      5-min Rain = 0
KCO1 121009Z 24003KT 17/06 A3005 RMK A01 T01700062  RH  049%=      5-min Rain = 0
KCO1 121010Z 24003KT 17/06 A3005 RMK A01 T01700062  RH  049%=      5-min Rain = 0
KCO1 121011Z 23003KT 17/06 A3005 RMK A01 T01690062  RH  049%=      5-min Rain = 0
KCO1 121012Z 23003KT 17/06 A3005 RMK A01 T01690063  RH  050%=      5-min Rain = 0
KCO1 121013Z 23002KT 17/06 A3005 RMK A01 T01680063  RH  050%=      5-min Rain = 0
KCO1 121014Z 23003KT 17/06 A3005 RMK A01 T01680063  RH  050%=      5-min Rain = 0
KCO1 121015Z 22003KT 17/06 A3005 RMK A01 T01680063  RH  050%=      5-min Rain = 0
KCO1 121016Z 22002KT 17/06 A3005 RMK A01 T01680063  RH  050%=      5-min Rain = 0
KCO1 121017Z 22002KT 17/06 A3005 RMK A01 T01680063  RH  050%=      5-min Rain = 0
KCO1 121018Z 22002KT 17/06 A3005 RMK A01 T01680063  RH  050%=      5-min Rain = 0
KCO1 121019Z 21002KT 17/06 A3005 RMK A01 T01680063  RH  050%=      5-min Rain = 0
KCO1 121020Z 22002KT 17/06 A3005 RMK A01 T01690063  RH  050%=      5-min Rain = 0
KCO1 121021Z 22002KT 17/06 A3005 RMK A01 T01690063  RH  050%=      5-min Rain = 0
KCO1 121022Z 21001KT 17/06 A3005 RMK A01 T01680063  RH  050%=      5-min Rain = 0
KCO1 121023Z 21001KT 17/06 A3005 RMK A01 T01670062  RH  050%=      5-min Rain = 0
KCO1 121024Z 21002KT 17/06 A3005 RMK A01 T01670062  RH  050%=      5-min Rain = 0
KCO1 121025Z 21001KT 17/06 A3005 RMK A01 T01660063  RH  050%=      5-min Rain = 0
KCO1 121026Z 21001KT 17/06 A3005 RMK A01 T01660062  RH  050%=      5-min Rain = 0
KCO1 121027Z 21001KT 17/06 A3005 RMK A01 T01660063  RH  051%=      5-min Rain = 0
KCO1 121028Z 21001KT 17/06 A3005 RMK A01 T01660063  RH  051%=      5-min Rain = 0
KCO1 121029Z 21001KT 17/06 A3005 RMK A01 T01650063  RH  051%=      5-min Rain = 0
KCO1 121030Z 21001KT 17/06 A3005 RMK A01 T01650063  RH  051%=      5-min Rain = 0
KCO1 121031Z 21001KT 16/06 A3005 RMK A01 T01640063  RH  051%=      5-min Rain = 0
KCO1 121032Z 21001KT 16/06 A3005 RMK A01 T01640063  RH  051%=      5-min Rain = 0
KCO1 121033Z 21000KT 16/06 A3005 RMK A01 T01630062  RH  051%=      5-min Rain = 0
KCO1 121034Z 21000KT 16/06 A3005 RMK A01 T01630062  RH  051%=      5-min Rain = 0
KCO1 121035Z 21000KT 16/06 A3005 RMK A01 T01620064  RH  052%=      5-min Rain = 0
KCO1 121036Z 21000KT 16/07 A3005 RMK A01 T01630065  RH  052%=      5-min Rain = 0
KCO1 121037Z 21001KT 16/07 A3005 RMK A01 T01620065  RH  052%=      5-min Rain = 0
KCO1 121038Z 21001KT 16/07 A3005 RMK A01 T01620065  RH  052%=      5-min Rain = 0
KCO1 121039Z 21001KT 16/07 A3005 RMK A01 T01620065  RH  052%=      5-min Rain = 0
KCO1 121040Z 21001KT 16/07 A3005 RMK A01 T01620065  RH  052%=      5-min Rain = 0
KCO1 121041Z 21001KT 16/06 A3005 RMK A01 T01620064  RH  052%=      5-min Rain = 0
KCO1 121042Z 21001KT 16/07 A3005 RMK A01 T01620065  RH  053%=      5-min Rain = 0
KCO1 121043Z 21001KT 16/07 A3005 RMK A01 T01610065  RH  053%=      5-min Rain = 0
KCO1 121044Z 21001KT 16/07 A3005 RMK A01 T01610065  RH  053%=      5-min Rain = 0
KCO1 121045Z 21001KT 16/06 A3005 RMK A01 T01600064  RH  053%=      5-min Rain = 0
KCO1 121046Z 21000KT 16/07 A3005 RMK A01 T01600065  RH  054%=      5-min Rain = 0
KCO1 121047Z 00000KT 16/07 A3005 RMK A01 T01590065  RH  054%=      5-min Rain = 0
KCO1 121048Z 00000KT 16/07 A3005 RMK A01 T01590066  RH  054%=      5-min Rain = 0
KCO1 121049Z 00000KT 16/07 A3005 RMK A01 T01580066  RH  054%=      5-min Rain = 0
KCO1 121050Z 00000KT 16/07 A3005 RMK A01 T01580066  RH  054%=      5-min Rain = 0
KCO1 121051Z 21000KT 16/07 A3005 RMK A01 T01580066  RH  054%=      5-min Rain = 0
KCO1 121052Z 21000KT 16/07 A3005 RMK A01 T01580065  RH  054%=      5-min Rain = 0
KCO1 121053Z 00000KT 16/06 A3005 RMK A01 T01570064  RH  054%=      5-min Rain = 0
KCO1 121054Z 21000KT 16/06 A3005 RMK A01 T01560064  RH  054%=      5-min Rain = 0
KCO1 121055Z 22000KT 16/06 A3005 RMK A01 T01560064  RH  054%=      5-min Rain = 0
KCO1 121056Z 22000KT 16/06 A3005 RMK A01 T01560064  RH  054%=      5-min Rain = 0
KCO1 121057Z 00000KT 16/06 A3005 RMK A01 T01560064  RH  054%=      5-min Rain = 0
KCO1 121058Z 00000KT 16/06 A3005 RMK A01 T01560063  RH  054%=      5-min Rain = 0
KCO1 121059Z 00000KT 16/06 A3005 RMK A01 T01560060  RH  053%=      5-min Rain = 0
KCO1 121100Z 00000KT 16/06 A3005 RMK A01 T01560058  RH  052%=      5-min Rain = 0
KCO1 121101Z 00000KT 16/06 A3005 RMK A01 T01550057  RH  052%=      5-min Rain = 0
KCO1 121102Z 00000KT 16/06 A3005 RMK A01 T01550056  RH  052%=      5-min Rain = 0
KCO1 121103Z 00000KT 16/06 A3005 RMK A01 T01550056  RH  052%=      5-min Rain = 0
KCO1 121104Z 00000KT 15/06 A3005 RMK A01 T01540057  RH  052%=      5-min Rain = 0
KCO1 121105Z 00000KT 15/06 A3005 RMK A01 T01540057  RH  052%=      5-min Rain = 0
KCO1 121106Z 00000KT 15/06 A3005 RMK A01 T01540056  RH  052%=      5-min Rain = 0
KCO1 121107Z 00000KT 15/06 A3005 RMK A01 T01540055  RH  052%=      5-min Rain = 0
KCO1 121108Z 00000KT 15/06 A3005 RMK A01 T01540055  RH  052%=      5-min Rain = 0
KCO1 121109Z 00000KT 15/06 A3005 RMK A01 T01540055  RH  052%=      5-min Rain = 0
KCO1 121110Z 00000KT 15/06 A3005 RMK A01 T01540055  RH  052%=      5-min Rain = 0
KCO1 121111Z 00000KT 15/06 A3005 RMK A01 T01540055  RH  052%=      5-min Rain = 0
KCO1 121112Z 00000KT 15/06 A3005 RMK A01 T01540055  RH  052%=      5-min Rain = 0
KCO1 121113Z 00000KT 15/06 A3005 RMK A01 T01540055  RH  052%=      5-min Rain = 0
KCO1 121114Z 00000KT 15/06 A3005 RMK A01 T01530055  RH  052%=      5-min Rain = 0
KCO1 121115Z 00000KT 15/06 A3005 RMK A01 T01530055  RH  052%=      5-min Rain = 0
KCO1 121116Z 00000KT 15/06 A3005 RMK A01 T01530056  RH  052%=      5-min Rain = 0
KCO1 121117Z 22000KT 15/06 A3005 RMK A01 T01520056  RH  053%=      5-min Rain = 0
KCO1 121118Z 22000KT 15/06 A3005 RMK A01 T01520057  RH  053%=      5-min Rain = 0
KCO1 121119Z 22001KT 15/06 A3005 RMK A01 T01520057  RH  053%=      5-min Rain = 0
KCO1 121120Z 22001KT 15/06 A3005 RMK A01 T01520057  RH  053%=      5-min Rain = 0
KCO1 121121Z 22001KT 15/06 A3005 RMK A01 T01520058  RH  053%=      5-min Rain = 0
KCO1 121122Z 22001KT 15/06 A3005 RMK A01 T01530058  RH  053%=      5-min Rain = 0
KCO1 121123Z 22001KT 15/06 A3005 RMK A01 T01530058  RH  053%=      5-min Rain = 0
KCO1 121124Z 22001KT 15/06 A3005 RMK A01 T01530057  RH  053%=      5-min Rain = 0
KCO1 121125Z 22002KT 15/06 A3005 RMK A01 T01530057  RH  053%=      5-min Rain = 0
KCO1 121126Z 22002KT 15/06 A3005 RMK A01 T01530057  RH  053%=      5-min Rain = 0
KCO1 121127Z 22002KT 15/06 A3005 RMK A01 T01520058  RH  053%=      5-min Rain = 0
KCO1 121128Z 22002KT 15/06 A3005 RMK A01 T01510058  RH  054%=      5-min Rain = 0
KCO1 121129Z 23002KT 15/06 A3005 RMK A01 T01500057  RH  054%=      5-min Rain = 0
KCO1 121130Z 23003KT 15/06 A3005 RMK A01 T01510058  RH  054%=      5-min Rain = 0
KCO1 121131Z 23002KT 15/06 A3005 RMK A01 T01510059  RH  054%=      5-min Rain = 0
KCO1 121132Z 23003KT 15/06 A3005 RMK A01 T01520059  RH  054%=      5-min Rain = 0
KCO1 121133Z 23003KT 15/06 A3005 RMK A01 T01530059  RH  054%=      5-min Rain = 0
KCO1 121134Z 22003KT 15/06 A3005 RMK A01 T01530059  RH  053%=      5-min Rain = 0
KCO1 121135Z 22003KT 15/06 A3005 RMK A01 T01540059  RH  053%=      5-min Rain = 0
KCO1 121136Z 22003KT 16/06 A3005 RMK A01 T01550059  RH  053%=      5-min Rain = 0
KCO1 121137Z 21003KT 16/06 A3005 RMK A01 T01560059  RH  053%=      5-min Rain = 0
KCO1 121138Z 21003KT 16/06 A3005 RMK A01 T01550059  RH  053%=      5-min Rain = 0
KCO1 121139Z 21003KT 16/06 A3005 RMK A01 T01560059  RH  053%=      5-min Rain = 0
KCO1 121140Z 22004KT 16/06 A3005 RMK A01 T01560059  RH  052%=      5-min Rain = 0
KCO1 121141Z 22004KT 16/06 A3005 RMK A01 T01560057  RH  052%=      5-min Rain = 0
KCO1 121142Z 22004KT 16/06 A3005 RMK A01 T01560056  RH  051%=      5-min Rain = 0
KCO1 121143Z 22004KT 16/06 A3005 RMK A01 T01560056  RH  051%=      5-min Rain = 0
KCO1 121144Z 22004KT 16/06 A3005 RMK A01 T01560056  RH  051%=      5-min Rain = 0
KCO1 121145Z 21004KT 16/06 A3005 RMK A01 T01560055  RH  051%=      5-min Rain = 0
KCO1 121146Z 21004KT 16/06 A3005 RMK A01 T01560056  RH  051%=      5-min Rain = 0
KCO1 121147Z 21004KT 16/06 A3005 RMK A01 T01560055  RH  051%=      5-min Rain = 0
KCO1 121148Z 22004KT 16/06 A3005 RMK A01 T01570055  RH  051%=      5-min Rain = 0
KCO1 121149Z 22005KT 16/06 A3005 RMK A01 T01570055  RH  051%=      5-min Rain = 0
KCO1 121150Z 21004KT 16/05 A3005 RMK A01 T01570054  RH  051%=      5-min Rain = 0
KCO1 121151Z 21005KT 16/05 A3005 RMK A01 T01560054  RH  051%=      5-min Rain = 0
KCO1 121152Z 21005KT 16/05 A3005 RMK A01 T01560054  RH  051%=      5-min Rain = 0
KCO1 121153Z 21004KT 16/05 A3005 RMK A01 T01550054  RH  051%=      5-min Rain = 0
KCO1 121154Z 21004KT 16/05 A3005 RMK A01 T01550054  RH  051%=      5-min Rain = 0
KCO1 121155Z 22005KT 15/06 A3005 RMK A01 T01540055  RH  051%=      5-min Rain = 0
KCO1 121156Z 22005KT 15/05 A3005 RMK A01 T01540054  RH  051%=      5-min Rain = 0
KCO1 121157Z 22005KT 15/05 A3005 RMK A01 T01530054  RH  051%=      5-min Rain = 0
KCO1 121158Z 22005KT 15/05 A3005 RMK A01 T01530053  RH  051%=      5-min Rain = 0
KCO1 121159Z 22005KT 15/05 A3005 RMK A01 T01520053  RH  051%=      5-min Rain = 0
KCO1 121200Z 23005KT 15/05 A3005 RMK A01 T01520053  RH  051%=      5-min Rain = 0
KCO1 121201Z 23005KT 15/05 A3005 RMK A01 T01510052  RH  051%=      5-min Rain = 0
KCO1 121202Z 23005KT 15/05 A3005 RMK A01 T01510052  RH  052%=      5-min Rain = 0
KCO1 121203Z 23005KT 15/05 A3005 RMK A01 T01510053  RH  052%=      5-min Rain = 0
KCO1 121204Z 23005KT 15/05 A3005 RMK A01 T01510052  RH  052%=      5-min Rain = 0
KCO1 121205Z 23005KT 15/05 A3005 RMK A01 T01500053  RH  052%=      5-min Rain = 0
KCO1 121206Z 23005KT 15/05 A3006 RMK A01 T01510053  RH  052%=      5-min Rain = 0
KCO1 121207Z 23005KT 15/05 A3006 RMK A01 T01500053  RH  052%=      5-min Rain = 0
KCO1 121208Z 23005KT 15/05 A3006 RMK A01 T01510053  RH  052%=      5-min Rain = 0
KCO1 121209Z 23005KT 15/05 A3006 RMK A01 T01500053  RH  052%=      5-min Rain = 0
KCO1 121210Z 24005KT 15/05 A3006 RMK A01 T01510053  RH  052%=      5-min Rain = 0
KCO1 121211Z 24005KT 15/05 A3006 RMK A01 T01510053  RH  052%=      5-min Rain = 0
KCO1 121212Z 24005KT 15/05 A3006 RMK A01 T01510054  RH  052%=      5-min Rain = 0
KCO1 121213Z 24004KT 15/05 A3006 RMK A01 T01510054  RH  052%=      5-min Rain = 0
KCO1 121214Z 24004KT 15/05 A3006 RMK A01 T01510054  RH  052%=      5-min Rain = 0
KCO1 121215Z 25004KT 15/06 A3006 RMK A01 T01510055  RH  053%=      5-min Rain = 0
KCO1 121216Z 24004KT 15/06 A3006 RMK A01 T01510055  RH  053%=      5-min Rain = 0
KCO1 121217Z 25004KT 15/06 A3006 RMK A01 T01520055  RH  052%=      5-min Rain = 0
KCO1 121218Z 25003KT 15/06 A3006 RMK A01 T01520056  RH  053%=      5-min Rain = 0
KCO1 121219Z 25004KT 15/06 A3006 RMK A01 T01520056  RH  053%=      5-min Rain = 0
KCO1 121220Z 25004KT 15/06 A3006 RMK A01 T01520057  RH  053%=      5-min Rain = 0
KCO1 121221Z 24003KT 15/06 A3006 RMK A01 T01520058  RH  053%=      5-min Rain = 0
KCO1 121222Z 24004KT 15/06 A3006 RMK A01 T01530058  RH  053%=      5-min Rain = 0
KCO1 121223Z 24004KT 15/06 A3006 RMK A01 T01540058  RH  053%=      5-min Rain = 0
KCO1 121224Z 24003KT 16/06 A3006 RMK A01 T01550059  RH  053%=      5-min Rain = 0
KCO1 121225Z 24003KT 16/06 A3006 RMK A01 T01550058  RH  053%=      5-min Rain = 0
KCO1 121226Z 24003KT 15/06 A3006 RMK A01 T01540058  RH  053%=      5-min Rain = 0
KCO1 121227Z 23003KT 16/06 A3006 RMK A01 T01550058  RH  053%=      5-min Rain = 0
KCO1 121228Z 23004KT 16/06 A3006 RMK A01 T01550059  RH  053%=      5-min Rain = 0
KCO1 121229Z 23004KT 16/06 A3006 RMK A01 T01550059  RH  053%=      5-min Rain = 0
KCO1 121230Z 22004KT 16/06 A3006 RMK A01 T01550059  RH  053%=      5-min Rain = 0
KCO1 121231Z 22004KT 16/06 A3006 RMK A01 T01550059  RH  053%=      5-min Rain = 0
KCO1 121232Z 23004KT 16/06 A3006 RMK A01 T01550059  RH  053%=      5-min Rain = 0
KCO1 121233Z 23004KT 16/06 A3006 RMK A01 T01550059  RH  052%=      5-min Rain = 0
KCO1 121234Z 23004KT 16/06 A3006 RMK A01 T01560059  RH  052%=      5-min Rain = 0
KCO1 121235Z 23003KT 16/06 A3006 RMK A01 T01550059  RH  053%=      5-min Rain = 0
KCO1 121236Z 23003KT 16/06 A3006 RMK A01 T01550059  RH  053%=      5-min Rain = 0
KCO1 121237Z 23003KT 16/06 A3006 RMK A01 T01550059  RH  053%=      5-min Rain = 0
KCO1 121238Z 24003KT 15/06 A3006 RMK A01 T01540059  RH  053%=      5-min Rain = 0
KCO1 121239Z 23003KT 15/06 A3006 RMK A01 T01540059  RH  053%=      5-min Rain = 0
KCO1 121240Z 24003KT 16/06 A3006 RMK A01 T01550059  RH  053%=      5-min Rain = 0
KCO1 121241Z 25003KT 15/06 A3006 RMK A01 T01540059  RH  053%=      5-min Rain = 0
KCO1 121242Z 25003KT 16/06 A3006 RMK A01 T01550059  RH  053%=      5-min Rain = 0
KCO1 121243Z 25003KT 15/06 A3006 RMK A01 T01540059  RH  053%=      5-min Rain = 0
KCO1 121244Z 24003KT 15/06 A3006 RMK A01 T01540059  RH  053%=      5-min Rain = 0
KCO1 121245Z 25003KT 15/06 A3006 RMK A01 T01540059  RH  053%=      5-min Rain = 0
KCO1 121246Z 24004KT 15/06 A3006 RMK A01 T01540059  RH  053%=      5-min Rain = 0
KCO1 121247Z 25004KT 15/06 A3006 RMK A01 T01530059  RH  053%=      5-min Rain = 0
KCO1 121248Z 25005KT 15/06 A3006 RMK A01 T01530059  RH  053%=      5-min Rain = 0
KCO1 121249Z 25005KT 15/06 A3006 RMK A01 T01530060  RH  054%=      5-min Rain = 0
KCO1 121250Z 25005KT 15/06 A3006 RMK A01 T01540060  RH  053%=      5-min Rain = 0
KCO1 121251Z 25005KT 16/06 A3006 RMK A01 T01550060  RH  053%=      5-min Rain = 0
KCO1 121252Z 25005KT 16/06 A3006 RMK A01 T01560060  RH  053%=      5-min Rain = 0
KCO1 121253Z 25005KT 16/06 A3006 RMK A01 T01570061  RH  053%=      5-min Rain = 0
KCO1 121254Z 25005KT 16/06 A3006 RMK A01 T01580061  RH  052%=      5-min Rain = 0
KCO1 121255Z 25005KT 16/06 A3006 RMK A01 T01590061  RH  052%=      5-min Rain = 0
KCO1 121256Z 25006KT 16/06 A3006 RMK A01 T01590062  RH  052%=      5-min Rain = 0
KCO1 121257Z 25005KT 16/06 A3006 RMK A01 T01600062  RH  052%=      5-min Rain = 0
KCO1 121258Z 25005KT 16/06 A3006 RMK A01 T01610062  RH  052%=      5-min Rain = 0
KCO1 121259Z 25005KT 16/06 A3006 RMK A01 T01610062  RH  052%=      5-min Rain = 0
KCO1 121300Z 25005KT 16/06 A3006 RMK A01 T01620063  RH  052%=      5-min Rain = 0
KCO1 121301Z 25005KT 16/06 A3006 RMK A01 T01620063  RH  052%=      5-min Rain = 0
KCO1 121302Z 25006KT 16/06 A3006 RMK A01 T01630063  RH  052%=      5-min Rain = 0
KCO1 121303Z 25005KT 16/06 A3007 RMK A01 T01630063  RH  052%=      5-min Rain = 0
KCO1 121304Z 24005KT 16/06 A3007 RMK A01 T01640063  RH  051%=      5-min Rain = 0
KCO1 121305Z 25005KT 16/06 A3007 RMK A01 T01640064  RH  051%=      5-min Rain = 0
KCO1 121306Z 25005KT 17/06 A3007 RMK A01 T01650064  RH  051%=      5-min Rain = 0
KCO1 121307Z 25005KT 17/06 A3007 RMK A01 T01650064  RH  051%=      5-min Rain = 0
KCO1 121308Z 25005KT 17/06 A3007 RMK A01 T01650064  RH  051%=      5-min Rain = 0
KCO1 121309Z 24005KT 17/06 A3007 RMK A01 T01660064  RH  051%=      5-min Rain = 0
KCO1 121310Z 25004KT 17/07 A3007 RMK A01 T01670065  RH  051%=      5-min Rain = 0
KCO1 121311Z 25004KT 17/07 A3007 RMK A01 T01670065  RH  051%=      5-min Rain = 0
KCO1 121312Z 25004KT 17/07 A3007 RMK A01 T01680065  RH  051%=      5-min Rain = 0
KCO1 121313Z 25004KT 17/07 A3007 RMK A01 T01680065  RH  051%=      5-min Rain = 0
KCO1 121314Z 25004KT 17/07 A3007 RMK A01 T01680066  RH  051%=      5-min Rain = 0
KCO1 121315Z 25004KT 17/07 A3007 RMK A01 T01690066  RH  051%=      5-min Rain = 0
KCO1 121316Z 25004KT 17/07 A3007 RMK A01 T01690066  RH  051%=      5-min Rain = 0
KCO1 121317Z 24003KT 17/07 A3007 RMK A01 T01700067  RH  050%=      5-min Rain = 0
KCO1 121318Z 24003KT 17/07 A3007 RMK A01 T01700066  RH  050%=      5-min Rain = 0
KCO1 121319Z 24004KT 17/07 A3007 RMK A01 T01710067  RH  050%=      5-min Rain = 0
KCO1 121320Z 24003KT 17/07 A3007 RMK A01 T01710067  RH  050%=      5-min Rain = 0
KCO1 121321Z 24004KT 17/07 A3007 RMK A01 T01720067  RH  050%=      5-min Rain = 0
KCO1 121322Z 24004KT 17/07 A3007 RMK A01 T01720067  RH  050%=      5-min Rain = 0
KCO1 121323Z 25004KT 17/07 A3007 RMK A01 T01720067  RH  050%=      5-min Rain = 0
KCO1 121324Z 24004KT 17/07 A3007 RMK A01 T01730067  RH  050%=      5-min Rain = 0
KCO1 121325Z 24003KT 17/07 A3007 RMK A01 T01730068  RH  050%=      5-min Rain = 0
KCO1 121326Z 24003KT 17/07 A3007 RMK A01 T01740068  RH  050%=      5-min Rain = 0
KCO1 121327Z 24003KT 18/07 A3007 RMK A01 T01750069  RH  050%=      5-min Rain = 0
KCO1 121328Z 24003KT 18/07 A3007 RMK A01 T01750069  RH  050%=      5-min Rain = 0
KCO1 121329Z 25002KT 18/07 A3007 RMK A01 T01760069  RH  050%=      5-min Rain = 0
KCO1 121330Z 24002KT 18/07 A3007 RMK A01 T01770070  RH  050%=      5-min Rain = 0
KCO1 121331Z 24002KT 18/07 A3007 RMK A01 T01770070  RH  049%=      5-min Rain = 0
KCO1 121332Z 24002KT 18/07 A3007 RMK A01 T01780069  RH  049%=      5-min Rain = 0
KCO1 121333Z 24003KT 18/07 A3007 RMK A01 T01780070  RH  049%=      5-min Rain = 0
KCO1 121334Z 24002KT 18/07 A3007 RMK A01 T01790070  RH  049%=      5-min Rain = 0
KCO1 121335Z 25002KT 18/07 A3007 RMK A01 T01790070  RH  049%=      5-min Rain = 0
KCO1 121336Z 25003KT 18/07 A3007 RMK A01 T01790070  RH  049%=      5-min Rain = 0
KCO1 121337Z 24003KT 18/07 A3007 RMK A01 T01800070  RH  049%=      5-min Rain = 0
KCO1 121338Z 24002KT 18/07 A3007 RMK A01 T01800071  RH  049%=      5-min Rain = 0
KCO1 121339Z 24003KT 18/07 A3007 RMK A01 T01810070  RH  048%=      5-min Rain = 0
KCO1 121340Z 25003KT 18/07 A3007 RMK A01 T01810071  RH  048%=      5-min Rain = 0
KCO1 121341Z 25003KT 18/07 A3007 RMK A01 T01810070  RH  048%=      5-min Rain = 0
KCO1 121342Z 25003KT 18/07 A3007 RMK A01 T01820071  RH  048%=      5-min Rain = 0
KCO1 121343Z 25002KT 18/07 A3007 RMK A01 T01820071  RH  048%=      5-min Rain = 0
KCO1 121344Z 26002KT 18/07 A3007 RMK A01 T01830072  RH  048%=      5-min Rain = 0
KCO1 121345Z 26003KT 18/07 A3007 RMK A01 T01840073  RH  048%=      5-min Rain = 0
KCO1 121346Z 26003KT 19/07 A3007 RMK A01 T01850073  RH  048%=      5-min Rain = 0
KCO1 121347Z 26003KT 19/07 A3007 RMK A01 T01860073  RH  048%=      5-min Rain = 0
KCO1 121348Z 27003KT 19/07 A3007 RMK A01 T01860073  RH  048%=      5-min Rain = 0
KCO1 121349Z 26002KT 19/07 A3007 RMK A01 T01870073  RH  047%=      5-min Rain = 0
KCO1 121350Z 27002KT 19/07 A3007 RMK A01 T01880074  RH  047%=      5-min Rain = 0
KCO1 121351Z 27003KT 19/07 A3007 RMK A01 T01890073  RH  047%=      5-min Rain = 0
KCO1 121352Z 27002KT 19/07 A3007 RMK A01 T01890073  RH  047%=      5-min Rain = 0
KCO1 121353Z 27002KT 19/07 A3008 RMK A01 T01890073  RH  047%=      5-min Rain = 0
KCO1 121354Z 26002KT 19/07 A3008 RMK A01 T01890073  RH  047%=      5-min Rain = 0
KCO1 121355Z 27002KT 19/07 A3008 RMK A01 T01890073  RH  047%=      5-min Rain = 0
KCO1 121356Z 26002KT 19/07 A3008 RMK A01 T01900073  RH  047%=      5-min Rain = 0
KCO1 121357Z 25001KT 19/07 A3008 RMK A01 T01900074  RH  047%=      5-min Rain = 0
KCO1 121358Z 27001KT 19/07 A3008 RMK A01 T01910074  RH  047%=      5-min Rain = 0
KCO1 121359Z 27002KT 19/08 A3008 RMK A01 T01920075  RH  046%=      5-min Rain = 0
KCO1 121400Z 28002KT 19/08 A3008 RMK A01 T01930075  RH  046%=      5-min Rain = 0
KCO1 121401Z 27002KT 20/08 A3007 RMK A01 T01950075  RH  046%=      5-min Rain = 0
KCO1 121402Z 30002KT 20/08 A3007 RMK A01 T01950075  RH  046%=      5-min Rain = 0
KCO1 121403Z 28002KT 20/08 A3007 RMK A01 T01960076  RH  046%=      5-min Rain = 0
KCO1 121404Z 28003KT 20/08 A3007 RMK A01 T01970077  RH  046%=      5-min Rain = 0
KCO1 121405Z 28003KT 20/08 A3007 RMK A01 T01980076  RH  045%=      5-min Rain = 0
KCO1 121406Z 30003KT 20/08 A3007 RMK A01 T01980076  RH  045%=      5-min Rain = 0
KCO1 121407Z 30003KT 20/08 A3007 RMK A01 T01990076  RH  045%=      5-min Rain = 0
KCO1 121408Z 29002KT 20/08 A3007 RMK A01 T01990076  RH  045%=      5-min Rain = 0
KCO1 121409Z 29003KT 20/08 A3007 RMK A01 T02000077  RH  045%=      5-min Rain = 0
KCO1 121410Z 29003KT 20/08 A3007 RMK A01 T02010077  RH  045%=      5-min Rain = 0
KCO1 121411Z 30003KT 20/08 A3007 RMK A01 T02010077  RH  045%=      5-min Rain = 0
KCO1 121412Z 31002KT 20/08 A3007 RMK A01 T02020077  RH  044%=      5-min Rain = 0
KCO1 121413Z 31002KT 20/08 A3007 RMK A01 T02030078  RH  044%=      5-min Rain = 0
KCO1 121414Z 29002KT 20/08 A3007 RMK A01 T02030077  RH  044%=      5-min Rain = 0
KCO1 121415Z 28003KT 20/08 A3007 RMK A01 T02040077  RH  044%=      5-min Rain = 0
KCO1 121416Z 29002KT 20/08 A3007 RMK A01 T02040078  RH  044%=      5-min Rain = 0
KCO1 121417Z 29002KT 21/08 A3007 RMK A01 T02050078  RH  044%=      5-min Rain = 0
KCO1 121418Z 30002KT 21/08 A3007 RMK A01 T02060079  RH  044%=      5-min Rain = 0
KCO1 121419Z 30003KT 21/08 A3007 RMK A01 T02070078  RH  044%=      5-min Rain = 0
KCO1 121420Z 30002KT 21/08 A3007 RMK A01 T02070078  RH  043%=      5-min Rain = 0
KCO1 121421Z 29003KT 21/08 A3008 RMK A01 T02080079  RH  043%=      5-min Rain = 0
KCO1 121422Z 29002KT 21/08 A3008 RMK A01 T02090079  RH  043%=      5-min Rain = 0
KCO1 121423Z 29002KT 21/08 A3008 RMK A01 T02090079  RH  043%=      5-min Rain = 0
KCO1 121424Z 27002KT 21/08 A3007 RMK A01 T02100079  RH  043%=      5-min Rain = 0
KCO1 121425Z 27002KT 21/08 A3007 RMK A01 T02100078  RH  043%=      5-min Rain = 0
KCO1 121426Z 28002KT 21/08 A3007 RMK A01 T02110079  RH  043%=      5-min Rain = 0
KCO1 121427Z 27003KT 21/08 A3007 RMK A01 T02120079  RH  043%=      5-min Rain = 0
KCO1 121428Z 27003KT 21/08 A3007 RMK A01 T02120079  RH  042%=      5-min Rain = 0
KCO1 121429Z 26003KT 21/08 A3007 RMK A01 T02120080  RH  042%=      5-min Rain = 0
KCO1 121430Z 27003KT 21/08 A3007 RMK A01 T02130080  RH  042%=      5-min Rain = 0
KCO1 121431Z 26003KT 21/08 A3007 RMK A01 T02140080  RH  042%=      5-min Rain = 0
KCO1 121432Z 26003KT 22/08 A3007 RMK A01 T02150080  RH  042%=      5-min Rain = 0
KCO1 121433Z 26004KT 22/08 A3008 RMK A01 T02160081  RH  042%=      5-min Rain = 0
KCO1 121434Z 26003KT 22/08 A3008 RMK A01 T02160080  RH  041%=      5-min Rain = 0
KCO1 121435Z 26004KT 22/08 A3008 RMK A01 T02160081  RH  042%=      5-min Rain = 0
KCO1 121436Z 26004KT 22/08 A3008 RMK A01 T02170081  RH  042%=      5-min Rain = 0
KCO1 121437Z 27003KT 22/08 A3008 RMK A01 T02170081  RH  041%=      5-min Rain = 0
KCO1 121438Z 28003KT 22/08 A3008 RMK A01 T02180081  RH  041%=      5-min Rain = 0
KCO1 121439Z 27003KT 22/08 A3008 RMK A01 T02190082  RH  041%=      5-min Rain = 0
KCO1 121440Z 27003KT 22/08 A3008 RMK A01 T02200081  RH  041%=      5-min Rain = 0
KCO1 121441Z 27003KT 22/08 A3008 RMK A01 T02200081  RH  041%=      5-min Rain = 0
KCO1 121442Z 29003KT 22/08 A3008 RMK A01 T02200081  RH  041%=      5-min Rain = 0
KCO1 121443Z 29003KT 22/08 A3008 RMK A01 T02210082  RH  041%=      5-min Rain = 0
KCO1 121444Z 29003KT 22/08 A3008 RMK A01 T02220082  RH  041%=      5-min Rain = 0
KCO1 121445Z 28003KT 22/08 A3008 RMK A01 T02230083  RH  040%=      5-min Rain = 0
KCO1 121446Z 26002KT 22/08 A3008 RMK A01 T02240082  RH  040%=      5-min Rain = 0
KCO1 121447Z 28003KT 23/08 A3008 RMK A01 T02250082  RH  040%=      5-min Rain = 0
KCO1 121448Z 29002KT 23/08 A3008 RMK A01 T02250081  RH  040%=      5-min Rain = 0
KCO1 121449Z 29002KT 23/08 A3008 RMK A01 T02260083  RH  040%=      5-min Rain = 0
KCO1 121450Z 30002KT 23/08 A3008 RMK A01 T02270082  RH  039%=      5-min Rain = 0
KCO1 121451Z 29003KT 23/08 A3008 RMK A01 T02280084  RH  040%=      5-min Rain = 0
KCO1 121452Z 26002KT 23/08 A3008 RMK A01 T02290083  RH  039%=      5-min Rain = 0
KCO1 121453Z 27003KT 23/08 A3008 RMK A01 T02300083  RH  039%=      5-min Rain = 0
KCO1 121454Z 27003KT 23/08 A3008 RMK A01 T02310084  RH  039%=      5-min Rain = 0
KCO1 121455Z 27003KT 23/08 A3008 RMK A01 T02320083  RH  039%=      5-min Rain = 0
KCO1 121456Z 27003KT 23/08 A3008 RMK A01 T02320083  RH  038%=      5-min Rain = 0
KCO1 121457Z 26002KT 23/08 A3008 RMK A01 T02310082  RH  038%=      5-min Rain = 0
KCO1 121458Z 27002KT 23/08 A3008 RMK A01 T02310083  RH  039%=      5-min Rain = 0
KCO1 121459Z 28002KT 23/08 A3008 RMK A01 T02310082  RH  038%=      5-min Rain = 0
KCO1 121500Z 28002KT 23/08 A3008 RMK A01 T02320084  RH  039%=      5-min Rain = 0
KCO1 121501Z 28002KT 23/08 A3008 RMK A01 T02340083  RH  038%=      5-min Rain = 0
KCO1 121502Z 28001KT 23/08 A3008 RMK A01 T02340084  RH  038%=      5-min Rain = 0
KCO1 121503Z 27003KT 24/08 A3008 RMK A01 T02350083  RH  038%=      5-min Rain = 0
KCO1 121504Z 28002KT 24/08 A3008 RMK A01 T02350082  RH  038%=      5-min Rain = 0
KCO1 121505Z 28002KT 24/08 A3008 RMK A01 T02350084  RH  038%=      5-min Rain = 0
KCO1 121506Z 27002KT 24/08 A3008 RMK A01 T02360083  RH  038%=      5-min Rain = 0
KCO1 121507Z 26001KT 24/08 A3008 RMK A01 T02370084  RH  038%=      5-min Rain = 0
KCO1 121508Z 27002KT 24/08 A3008 RMK A01 T02380084  RH  037%=      5-min Rain = 0
KCO1 121509Z 26003KT 24/08 A3008 RMK A01 T02390084  RH  037%=      5-min Rain = 0
KCO1 121510Z 27002KT 24/08 A3008 RMK A01 T02390084  RH  037%=      5-min Rain = 0
KCO1 121511Z 28001KT 24/08 A3008 RMK A01 T02390083  RH  037%=      5-min Rain = 0
KCO1 121512Z 28001KT 24/08 A3008 RMK A01 T02410083  RH  036%=      5-min Rain = 0
KCO1 121513Z 27001KT 24/08 A3008 RMK A01 T02420082  RH  036%=      5-min Rain = 0
KCO1 121514Z 29002KT 24/08 A3008 RMK A01 T02430084  RH  036%=      5-min Rain = 0
KCO1 121515Z 27002KT 24/08 A3008 RMK A01 T02440083  RH  036%=      5-min Rain = 0
KCO1 121516Z 24001KT 24/08 A3008 RMK A01 T02430083  RH  036%=      5-min Rain = 0
KCO1 121517Z 24001KT 24/08 A3008 RMK A01 T02430083  RH  036%=      5-min Rain = 0
KCO1 121518Z 26002KT 25/08 A3008 RMK A01 T02450084  RH  036%=      5-min Rain = 0
KCO1 121519Z 28002KT 25/08 A3008 RMK A01 T02460084  RH  035%=      5-min Rain = 0
KCO1 121520Z 29001KT 25/08 A3008 RMK A01 T02460083  RH  036%=      5-min Rain = 0
KCO1 121521Z 00000KT 25/08 A3008 RMK A01 T02460083  RH  035%=      5-min Rain = 0
KCO1 121522Z 30001KT 25/08 A3008 RMK A01 T02470084  RH  035%=      5-min Rain = 0
KCO1 121523Z 24002KT 25/09 A3008 RMK A01 T02490086  RH  035%=      5-min Rain = 0
KCO1 121524Z 27003KT 25/09 A3008 RMK A01 T02510085  RH  035%=      5-min Rain = 0
KCO1 121525Z 27002KT 25/08 A3008 RMK A01 T02520084  RH  034%=      5-min Rain = 0
KCO1 121526Z 21001KT 25/08 A3008 RMK A01 T02510084  RH  034%=      5-min Rain = 0
KCO1 121527Z 30001KT 25/08 A3008 RMK A01 T02520084  RH  034%=      5-min Rain = 0
KCO1 121528Z 27002KT 25/08 A3008 RMK A01 T02520084  RH  034%=      5-min Rain = 0
KCO1 121529Z 30002KT 25/08 A3008 RMK A01 T02530084  RH  034%=      5-min Rain = 0
KCO1 121530Z 31003KT 25/08 A3008 RMK A01 T02530083  RH  034%=      5-min Rain = 0
KCO1 121531Z 31003KT 25/08 A3008 RMK A01 T02520083  RH  034%=      5-min Rain = 0
KCO1 121532Z 27003KT 25/09 A3008 RMK A01 T02510085  RH  035%=      5-min Rain = 0
KCO1 121533Z 27002KT 25/08 A3008 RMK A01 T02510084  RH  034%=      5-min Rain = 0
KCO1 121534Z 28002KT 25/08 A3008 RMK A01 T02520084  RH  034%=      5-min Rain = 0
KCO1 121535Z 29000KT 25/08 A3008 RMK A01 T02520084  RH  034%=      5-min Rain = 0
KCO1 121536Z 26000KT 25/08 A3008 RMK A01 T02540084  RH  034%=      5-min Rain = 0
KCO1 121537Z 27002KT 26/09 A3008 RMK A01 T02570085  RH  034%=      5-min Rain = 0
KCO1 121538Z 28002KT 26/09 A3008 RMK A01 T02570085  RH  034%=      5-min Rain = 0
KCO1 121539Z 28002KT 26/09 A3008 RMK A01 T02570085  RH  033%=      5-min Rain = 0
KCO1 121540Z 25002KT 26/09 A3008 RMK A01 T02570085  RH  034%=      5-min Rain = 0
KCO1 121541Z 27001KT 26/09 A3008 RMK A01 T02570086  RH  034%=      5-min Rain = 0
KCO1 121542Z 25002KT 26/09 A3008 RMK A01 T02580085  RH  033%=      5-min Rain = 0
KCO1 121543Z 28003KT 26/09 A3008 RMK A01 T02590086  RH  033%=      5-min Rain = 0
KCO1 121544Z 30004KT 26/09 A3008 RMK A01 T02590086  RH  033%=      5-min Rain = 0
KCO1 121545Z 30004KT 26/09 A3008 RMK A01 T02600085  RH  033%=      5-min Rain = 0
KCO1 121546Z 29004KT 26/09 A3008 RMK A01 T02600086  RH  033%=      5-min Rain = 0
KCO1 121547Z 30002KT 26/09 A3008 RMK A01 T02590085  RH  033%=      5-min Rain = 0
KCO1 121548Z 26004KT 26/09 A3008 RMK A01 T02590085  RH  033%=      5-min Rain = 0
KCO1 121549Z 27003KT 26/09 A3008 RMK A01 T02600085  RH  033%=      5-min Rain = 0
KCO1 121550Z 30002KT 26/08 A3008 RMK A01 T02600084  RH  033%=      5-min Rain = 0
KCO1 121551Z 29001KT 26/08 A3008 RMK A01 T02620084  RH  033%=      5-min Rain = 0
KCO1 121552Z 30004KT 26/09 A3008 RMK A01 T02630085  RH  032%=      5-min Rain = 0
KCO1 121553Z 29003KT 26/08 A3009 RMK A01 T02640084  RH  032%=      5-min Rain = 0
KCO1 121554Z 31002KT 26/09 A3009 RMK A01 T02640085  RH  032%=      5-min Rain = 0
KCO1 121555Z 30004KT 27/09 A3009 RMK A01 T02650086  RH  032%=      5-min Rain = 0
KCO1 121556Z 32004KT 27/08 A3009 RMK A01 T02660084  RH  032%=      5-min Rain = 0
KCO1 121557Z 31002KT 26/09 A3009 RMK A01 T02640085  RH  032%=      5-min Rain = 0
KCO1 121558Z 26005KT 26/08 A3009 RMK A01 T02640084  RH  032%=      5-min Rain = 0
KCO1 121559Z 26005KT 26/09 A3009 RMK A01 T02640085  RH  032%=      5-min Rain = 0
KCO1 121600Z 26003KT 27/09 A3009 RMK A01 T02650085  RH  032%=      5-min Rain = 0
KCO1 121601Z 26003KT 27/09 A3008 RMK A01 T02660085  RH  032%=      5-min Rain = 0
KCO1 121602Z 30003KT 27/09 A3008 RMK A01 T02690087  RH  032%=      5-min Rain = 0
KCO1 121603Z 29005KT 27/09 A3008 RMK A01 T02700087  RH  032%=      5-min Rain = 0
KCO1 121604Z 27004KT 27/09 A3008 RMK A01 T02690086  RH  031%=      5-min Rain = 0
KCO1 121605Z 26003KT 27/09 A3008 RMK A01 T02680086  RH  032%=      5-min Rain = 0
KCO1 121606Z 26002KT 27/09 A3008 RMK A01 T02680087  RH  032%=      5-min Rain = 0
KCO1 121607Z 28002KT 27/09 A3008 RMK A01 T02690088  RH  032%=      5-min Rain = 0
KCO1 121608Z 28004KT 27/09 A3008 RMK A01 T02710087  RH  031%=      5-min Rain = 0
KCO1 121609Z 30004KT 27/09 A3008 RMK A01 T02710085  RH  031%=      5-min Rain = 0
KCO1 121610Z 30005KT 27/09 A3008 RMK A01 T02720087  RH  031%=      5-min Rain = 0
KCO1 121611Z 29005KT 27/09 A3008 RMK A01 T02720086  RH  031%=      5-min Rain = 0
KCO1 121612Z 29003KT 27/09 A3008 RMK A01 T02720086  RH  031%=      5-min Rain = 0
KCO1 121613Z 24002KT 27/09 A3008 RMK A01 T02720086  RH  031%=      5-min Rain = 0
KCO1 121614Z 23000KT 27/09 A3008 RMK A01 T02720086  RH  031%=      5-min Rain = 0
KCO1 121615Z 30003KT 27/09 A3008 RMK A01 T02720087  RH  031%=      5-min Rain = 0
KCO1 121616Z 31003KT 27/09 A3008 RMK A01 T02730087  RH  031%=      5-min Rain = 0
KCO1 121617Z 31003KT 27/09 A3008 RMK A01 T02730087  RH  031%=      5-min Rain = 0
KCO1 121618Z 32004KT 27/09 A3008 RMK A01 T02740087  RH  031%=      5-min Rain = 0
KCO1 121619Z 32004KT 27/09 A3008 RMK A01 T02740089  RH  031%=      5-min Rain = 0
KCO1 121620Z 31002KT 27/09 A3008 RMK A01 T02740087  RH  031%=      5-min Rain = 0
KCO1 121621Z 34000KT 28/09 A3008 RMK A01 T02750089  RH  031%=      5-min Rain = 0
KCO1 121622Z 29002KT 28/09 A3008 RMK A01 T02780089  RH  031%=      5-min Rain = 0
KCO1 121623Z 28002KT 28/09 A3008 RMK A01 T02790088  RH  030%=      5-min Rain = 0
KCO1 121624Z 27002KT 28/09 A3007 RMK A01 T02800089  RH  030%=      5-min Rain = 0
KCO1 121625Z 27002KT 28/09 A3007 RMK A01 T02820090  RH  030%=      5-min Rain = 0
KCO1 121626Z 31003KT 28/09 A3007 RMK A01 T02820089  RH  030%=      5-min Rain = 0
KCO1 121627Z 34003KT 28/09 A3007 RMK A01 T02830092  RH  030%=      5-min Rain = 0
KCO1 121628Z 34003KT 28/09 A3007 RMK A01 T02830089  RH  030%=      5-min Rain = 0
KCO1 121629Z 35003KT 28/09 A3007 RMK A01 T02830091  RH  030%=      5-min Rain = 0
KCO1 121630Z 33004KT 28/09 A3007 RMK A01 T02830090  RH  030%=      5-min Rain = 0
KCO1 121631Z 30003KT 28/09 A3007 RMK A01 T02820090  RH  030%=      5-min Rain = 0
KCO1 121632Z 32002KT 28/09 A3007 RMK A01 T02820089  RH  030%=      5-min Rain = 0
KCO1 121633Z 32001KT 28/09 A3007 RMK A01 T02810090  RH  030%=      5-min Rain = 0
KCO1 121634Z 33001KT 28/09 A3007 RMK A01 T02820089  RH  030%=      5-min Rain = 0
KCO1 121635Z 31003KT 28/09 A3007 RMK A01 T02830091  RH  030%=      5-min Rain = 0
KCO1 121636Z 32002KT 28/09 A3007 RMK A01 T02820091  RH  030%=      5-min Rain = 0
KCO1 121637Z 34002KT 28/09 A3007 RMK A01 T02820092  RH  030%=      5-min Rain = 0
KCO1 121638Z 35002KT 28/09 A3007 RMK A01 T02840091  RH  030%=      5-min Rain = 0
KCO1 121639Z 34002KT 28/09 A3007 RMK A01 T02830090  RH  030%=      5-min Rain = 0
KCO1 121640Z 00002KT 28/09 A3007 RMK A01 T02840090  RH  030%=      5-min Rain = 0
KCO1 121641Z 36002KT 29/09 A3007 RMK A01 T02850090  RH  029%=      5-min Rain = 0
KCO1 121642Z 35002KT 29/09 A3007 RMK A01 T02870091  RH  029%=      5-min Rain = 0
KCO1 121643Z 33002KT 29/09 A3007 RMK A01 T02890090  RH  029%=      5-min Rain = 0
KCO1 121644Z 30002KT 29/09 A3007 RMK A01 T02900091  RH  029%=      5-min Rain = 0
KCO1 121645Z 31001KT 29/09 A3007 RMK A01 T02900092  RH  029%=      5-min Rain = 0
KCO1 121646Z 32003KT 29/09 A3007 RMK A01 T02910093  RH  029%=      5-min Rain = 0
KCO1 121647Z 32003KT 29/09 A3007 RMK A01 T02920094  RH  029%=      5-min Rain = 0
KCO1 121648Z 32002KT 29/09 A3007 RMK A01 T02930094  RH  029%=      5-min Rain = 0
KCO1 121649Z 28004KT 30/09 A3007 RMK A01 T02970092  RH  028%=      5-min Rain = 0
KCO1 121650Z 29005KT 30/09 A3007 RMK A01 T02980090  RH  027%=      5-min Rain = 0
KCO1 121651Z 29003KT 30/09 A3007 RMK A01 T02960087  RH  027%=      5-min Rain = 0
KCO1 121652Z 25003KT 29/09 A3007 RMK A01 T02930089  RH  028%=      5-min Rain = 0
KCO1 121653Z 24002KT 29/09 A3007 RMK A01 T02930088  RH  028%=      5-min Rain = 0
KCO1 121654Z 23003KT 29/09 A3007 RMK A01 T02940088  RH  028%=      5-min Rain = 0
KCO1 121655Z 23005KT 30/09 A3007 RMK A01 T02960089  RH  028%=      5-min Rain = 0
KCO1 121656Z 23002KT 30/09 A3007 RMK A01 T02970088  RH  027%=      5-min Rain = 0
KCO1 121657Z 21002KT 30/09 A3007 RMK A01 T02970088  RH  027%=      5-min Rain = 0
KCO1 121658Z 25001KT 30/09 A3007 RMK A01 T02980089  RH  027%=      5-min Rain = 0
KCO1 121659Z 23003KT 30/09 A3007 RMK A01 T03000089  RH  027%=      5-min Rain = 0
KCO1 121700Z 29002KT 30/09 A3007 RMK A01 T03020089  RH  027%=      5-min Rain = 0
KCO1 121701Z 29004KT 30/09 A3007 RMK A01 T03030091  RH  027%=      5-min Rain = 0
KCO1 121702Z 27006KT 31/09 A3007 RMK A01 T03050091  RH  026%=      5-min Rain = 0
KCO1 121703Z 28004KT 31/09 A3007 RMK A01 T03050091  RH  026%=      5-min Rain = 0
KCO1 121704Z 28003KT 31/09 A3007 RMK A01 T03050091  RH  026%=      5-min Rain = 0
KCO1 121705Z 29002KT 31/09 A3006 RMK A01 T03050089  RH  026%=      5-min Rain = 0
KCO1 121706Z 27004KT 31/09 A3006 RMK A01 T03050090  RH  026%=      5-min Rain = 0
KCO1 121707Z 28004KT 30/09 A3006 RMK A01 T03040088  RH  026%=      5-min Rain = 0
KCO1 121708Z 27001KT 30/09 A3006 RMK A01 T03020088  RH  026%=      5-min Rain = 0
KCO1 121709Z 27000KT 30/09 A3006 RMK A01 T03010088  RH  027%=      5-min Rain = 0
KCO1 121710Z 08001KT 30/09 A3006 RMK A01 T03020087  RH  026%=      5-min Rain = 0
KCO1 121711Z 14001KT 30/09 A3006 RMK A01 T03020088  RH  026%=      5-min Rain = 0
KCO1 121712Z 25003KT 31/09 A3006 RMK A01 T03050089  RH  026%=      5-min Rain = 0
KCO1 121713Z 27004KT 31/09 A3006 RMK A01 T03080090  RH  026%=      5-min Rain = 0
KCO1 121714Z 26004KT 31/09 A3006 RMK A01 T03090089  RH  026%=      5-min Rain = 0
KCO1 121715Z 26003KT 31/09 A3006 RMK A01 T03080088  RH  025%=      5-min Rain = 0
KCO1 121716Z 29002KT 31/09 A3006 RMK A01 T03060088  RH  026%=      5-min Rain = 0
KCO1 121717Z 31002KT 31/09 A3006 RMK A01 T03060089  RH  026%=      5-min Rain = 0
KCO1 121718Z 02001KT 31/09 A3006 RMK A01 T03050089  RH  026%=      5-min Rain = 0
KCO1 121719Z 01000KT 31/09 A3006 RMK A01 T03060087  RH  026%=      5-min Rain = 0
KCO1 121720Z 01001KT 31/09 A3006 RMK A01 T03070087  RH  025%=      5-min Rain = 0
KCO1 121721Z 01000KT 31/09 A3006 RMK A01 T03080087  RH  025%=      5-min Rain = 0
KCO1 121722Z 27000KT 31/09 A3006 RMK A01 T03090088  RH  025%=      5-min Rain = 0
KCO1 121723Z 28003KT 31/09 A3006 RMK A01 T03110089  RH  025%=      5-min Rain = 0
KCO1 121724Z 27002KT 31/09 A3006 RMK A01 T03130088  RH  025%=      5-min Rain = 0
KCO1 121725Z 29005KT 31/09 A3006 RMK A01 T03130088  RH  025%=      5-min Rain = 0
KCO1 121726Z 27005KT 31/09 A3006 RMK A01 T03120086  RH  025%=      5-min Rain = 0
KCO1 121727Z 25003KT 31/09 A3006 RMK A01 T03110085  RH  025%=      5-min Rain = 0
KCO1 121728Z 25002KT 31/09 A3006 RMK A01 T03110085  RH  025%=      5-min Rain = 0
KCO1 121729Z 28001KT 31/09 A3006 RMK A01 T03110085  RH  024%=      5-min Rain = 0
KCO1 121730Z 29001KT 31/08 A3005 RMK A01 T03130084  RH  024%=      5-min Rain = 0
KCO1 121731Z 30003KT 31/08 A3005 RMK A01 T03130083  RH  024%=      5-min Rain = 0
KCO1 121732Z 28003KT 31/09 A3005 RMK A01 T03140086  RH  024%=      5-min Rain = 0
KCO1 121733Z 28003KT 31/09 A3005 RMK A01 T03140085  RH  024%=      5-min Rain = 0
KCO1 121734Z 30002KT 31/09 A3005 RMK A01 T03140087  RH  024%=      5-min Rain = 0
KCO1 121735Z 32002KT 32/09 A3005 RMK A01 T03150085  RH  024%=      5-min Rain = 0
KCO1 121736Z 32002KT 32/09 A3005 RMK A01 T03150085  RH  024%=      5-min Rain = 0
KCO1 121737Z 31002KT 31/09 A3005 RMK A01 T03140086  RH  024%=      5-min Rain = 0
KCO1 121738Z 29004KT 31/09 A3005 RMK A01 T03140086  RH  024%=      5-min Rain = 0
KCO1 121739Z 30003KT 31/09 A3005 RMK A01 T03140087  RH  025%=      5-min Rain = 0
KCO1 121740Z 31002KT 31/09 A3005 RMK A01 T03140085  RH  024%=      5-min Rain = 0
KCO1 121741Z 24002KT 32/09 A3005 RMK A01 T03150086  RH  024%=      5-min Rain = 0
KCO1 121742Z 27006KT 32/09 A3005 RMK A01 T03160086  RH  024%=      5-min Rain = 0
KCO1 121743Z 27004KT 32/09 A3005 RMK A01 T03150086  RH  024%=      5-min Rain = 0
KCO1 121744Z 26005KT 32/09 A3005 RMK A01 T03150087  RH  024%=      5-min Rain = 0
KCO1 121745Z 26004KT 32/09 A3005 RMK A01 T03150086  RH  024%=      5-min Rain = 0
KCO1 121746Z 26006KT 32/09 A3005 RMK A01 T03150086  RH  024%=      5-min Rain = 0
KCO1 121747Z 22004KT 32/09 A3005 RMK A01 T03150085  RH  024%=      5-min Rain = 0
KCO1 121748Z 25002KT 32/09 A3005 RMK A01 T03150086  RH  024%=      5-min Rain = 0
KCO1 121749Z 00002KT 32/09 A3005 RMK A01 T03160086  RH  024%=      5-min Rain = 0
KCO1 121750Z 35002KT 32/09 A3005 RMK A01 T03160085  RH  024%=      5-min Rain = 0
KCO1 121751Z 30002KT 32/09 A3005 RMK A01 T03160085  RH  024%=      5-min Rain = 0
KCO1 121752Z 25004KT 32/09 A3005 RMK A01 T03160085  RH  024%=      5-min Rain = 0
KCO1 121753Z 23003KT 32/09 A3005 RMK A01 T03190086  RH  024%=      5-min Rain = 0
KCO1 121754Z 23002KT 32/09 A3005 RMK A01 T03210085  RH  023%=      5-min Rain = 0
KCO1 121755Z 27004KT 32/09 A3005 RMK A01 T03220086  RH  023%=      5-min Rain = 0
KCO1 121756Z 28004KT 32/08 A3004 RMK A01 T03220082  RH  023%=      5-min Rain = 0
KCO1 121757Z 32003KT 32/08 A3004 RMK A01 T03200081  RH  023%=      5-min Rain = 0
KCO1 121758Z 33006KT 32/08 A3004 RMK A01 T03190082  RH  023%=      5-min Rain = 0
KCO1 121759Z 31005KT 32/08 A3004 RMK A01 T03190079  RH  023%=      5-min Rain = 0
KCO1 121800Z 33005KT 32/08 A3004 RMK A01 T03190078  RH  022%=      5-min Rain = 0
KCO1 121801Z 33005KT 32/08 A3004 RMK A01 T03190080  RH  023%=      5-min Rain = 0
KCO1 121802Z 03002KT 32/08 A3004 RMK A01 T03190080  RH  023%=      5-min Rain = 0
KCO1 121803Z 04002KT 32/08 A3004 RMK A01 T03190083  RH  023%=      5-min Rain = 0
KCO1 121804Z 02001KT 32/08 A3004 RMK A01 T03210082  RH  023%=      5-min Rain = 0
KCO1 121805Z 29002KT 32/08 A3004 RMK A01 T03240083  RH  023%=      5-min Rain = 0
KCO1 121806Z 29003KT 33/09 A3004 RMK A01 T03250085  RH  023%=      5-min Rain = 0
KCO1 121807Z 31002KT 33/09 A3004 RMK A01 T03260086  RH  023%=      5-min Rain = 0
KCO1 121808Z 29001KT 33/09 A3004 RMK A01 T03270085  RH  022%=      5-min Rain = 0
KCO1 121809Z 30004KT 33/09 A3004 RMK A01 T03270085  RH  022%=      5-min Rain = 0
KCO1 121810Z 30006KT 33/09 A3004 RMK A01 T03280086  RH  022%=      5-min Rain = 0
KCO1 121811Z 28006KT 33/09 A3004 RMK A01 T03280085  RH  022%=      5-min Rain = 0
KCO1 121812Z 27006KT 33/09 A3004 RMK A01 T03270085  RH  022%=      5-min Rain = 0
KCO1 121813Z 28007KT 33/09 A3004 RMK A01 T03270086  RH  023%=      5-min Rain = 0
KCO1 121814Z 29007KT 33/09 A3003 RMK A01 T03270085  RH  022%=      5-min Rain = 0
KCO1 121815Z 28004KT 32/08 A3003 RMK A01 T03240083  RH  023%=      5-min Rain = 0
KCO1 121816Z 29005KT 32/09 A3003 RMK A01 T03230086  RH  023%=      5-min Rain = 0
KCO1 121817Z 29005KT 33/09 A3003 RMK A01 T03260087  RH  023%=      5-min Rain = 0
KCO1 121818Z 30004KT 33/09 A3003 RMK A01 T03260086  RH  023%=      5-min Rain = 0
KCO1 121819Z 32005KT 33/09 A3003 RMK A01 T03260085  RH  022%=      5-min Rain = 0
KCO1 121820Z 35004KT 32/08 A3003 RMK A01 T03230084  RH  023%=      5-min Rain = 0
KCO1 121821Z 28003KT 32/09 A3003 RMK A01 T03240086  RH  023%=      5-min Rain = 0
KCO1 121822Z 27004KT 33/09 A3003 RMK A01 T03270085  RH  022%=      5-min Rain = 0
KCO1 121823Z 32002KT 33/09 A3003 RMK A01 T03270085  RH  022%=      5-min Rain = 0
KCO1 121824Z 28003KT 33/09 A3003 RMK A01 T03260085  RH  023%=      5-min Rain = 0
KCO1 121825Z 28006KT 33/09 A3003 RMK A01 T03270086  RH  022%=      5-min Rain = 0
KCO1 121826Z 25002KT 33/08 A3003 RMK A01 T03270084  RH  022%=      5-min Rain = 0
KCO1 121827Z 21001KT 33/08 A3003 RMK A01 T03250084  RH  022%=      5-min Rain = 0
KCO1 121828Z 26001KT 33/08 A3003 RMK A01 T03250083  RH  022%=      5-min Rain = 0
KCO1 121829Z 30003KT 33/08 A3003 RMK A01 T03260084  RH  022%=      5-min Rain = 0
KCO1 121830Z 32005KT 33/09 A3003 RMK A01 T03270085  RH  022%=      5-min Rain = 0
KCO1 121831Z 32005KT 33/09 A3003 RMK A01 T03290086  RH  022%=      5-min Rain = 0
KCO1 121832Z 03002KT 33/08 A3003 RMK A01 T03280082  RH  022%=      5-min Rain = 0
KCO1 121833Z 30005KT 33/08 A3002 RMK A01 T03270084  RH  022%=      5-min Rain = 0
KCO1 121834Z 33007KT 33/08 A3002 RMK A01 T03270084  RH  022%=      5-min Rain = 0
KCO1 121835Z 33006KT 33/08 A3002 RMK A01 T03270084  RH  022%=      5-min Rain = 0
KCO1 121836Z 33005KT 33/09 A3002 RMK A01 T03280086  RH  022%=      5-min Rain = 0
KCO1 121837Z 35004KT 33/09 A3002 RMK A01 T03290085  RH  022%=      5-min Rain = 0
KCO1 121838Z 33003KT 33/08 A3002 RMK A01 T03280084  RH  022%=      5-min Rain = 0
KCO1 121839Z 26001KT 33/08 A3002 RMK A01 T03270084  RH  022%=      5-min Rain = 0
KCO1 121840Z 29000KT 33/08 A3002 RMK A01 T03270084  RH  022%=      5-min Rain = 0
KCO1 121841Z 34001KT 33/09 A3002 RMK A01 T03270085  RH  022%=      5-min Rain = 0
KCO1 121842Z 31002KT 33/08 A3002 RMK A01 T03280084  RH  022%=      5-min Rain = 0
KCO1 121843Z 33005KT 33/09 A3002 RMK A01 T03290085  RH  022%=      5-min Rain = 0
KCO1 121844Z 35005KT 33/09 A3002 RMK A01 T03290085  RH  022%=      5-min Rain = 0
KCO1 121845Z 00002KT 33/09 A3002 RMK A01 T03290085  RH  022%=      5-min Rain = 0
KCO1 121846Z 01003KT 33/09 A3002 RMK A01 T03300085  RH  022%=      5-min Rain = 0
KCO1 121847Z 01003KT 33/08 A3002 RMK A01 T03300084  RH  022%=      5-min Rain = 0
KCO1 121848Z 03003KT 33/09 A3002 RMK A01 T03290085  RH  022%=      5-min Rain = 0
KCO1 121849Z 02003KT 33/09 A3002 RMK A01 T03290085  RH  022%=      5-min Rain = 0
KCO1 121850Z 01003KT 33/09 A3001 RMK A01 T03290086  RH  022%=      5-min Rain = 0
KCO1 121851Z 02003KT 33/09 A3001 RMK A01 T03310088  RH  022%=      5-min Rain = 0
KCO1 121852Z 07002KT 33/09 A3001 RMK A01 T03320085  RH  022%=      5-min Rain = 0
KCO1 121853Z 07002KT 33/09 A3001 RMK A01 T03330086  RH  022%=      5-min Rain = 0
KCO1 121854Z 07002KT 33/09 A3001 RMK A01 T03330086  RH  022%=      5-min Rain = 0
KCO1 121855Z 06003KT 33/09 A3001 RMK A01 T03320085  RH  022%=      5-min Rain = 0
KCO1 121856Z 09002KT 33/09 A3001 RMK A01 T03300085  RH  022%=      5-min Rain = 0
KCO1 121857Z 09003KT 33/09 A3001 RMK A01 T03320088  RH  022%=      5-min Rain = 0
KCO1 121858Z 11003KT 34/09 A3001 RMK A01 T03350088  RH  022%=      5-min Rain = 0
KCO1 121859Z 08002KT 34/09 A3001 RMK A01 T03360088  RH  022%=      5-min Rain = 0
KCO1 121900Z 06002KT 34/09 A3001 RMK A01 T03380087  RH  021%=      5-min Rain = 0
KCO1 121901Z 04001KT 34/09 A3001 RMK A01 T03380086  RH  021%=      5-min Rain = 0
KCO1 121902Z 09002KT 34/09 A3001 RMK A01 T03380087  RH  021%=      5-min Rain = 0
KCO1 121903Z 26003KT 34/09 A3001 RMK A01 T03400088  RH  021%=      5-min Rain = 0
KCO1 121904Z 28005KT 34/09 A3001 RMK A01 T03410088  RH  021%=      5-min Rain = 0
KCO1 121905Z 28003KT 34/09 A3001 RMK A01 T03400086  RH  021%=      5-min Rain = 0
KCO1 121906Z 30004KT 34/09 A3001 RMK A01 T03380086  RH  021%=      5-min Rain = 0
KCO1 121907Z 30005KT 34/09 A3001 RMK A01 T03370086  RH  021%=      5-min Rain = 0
KCO1 121908Z 29004KT 34/09 A30 RMK A01 T03350085  RH  021%=      5-min Rain = 0
KCO1 121909Z 32004KT 33/09 A30 RMK A01 T03340086  RH  022%=      5-min Rain = 0
KCO1 121910Z 34003KT 33/09 A30 RMK A01 T03340086  RH  022%=      5-min Rain = 0
KCO1 121911Z 34003KT 34/09 A30 RMK A01 T03360087  RH  022%=      5-min Rain = 0
KCO1 121912Z 28002KT 34/09 A30 RMK A01 T03400089  RH  021%=      5-min Rain = 0
KCO1 121913Z 24004KT 34/09 A30 RMK A01 T03430087  RH  021%=      5-min Rain = 0
KCO1 121914Z 21001KT 34/09 A30 RMK A01 T03440088  RH  021%=      5-min Rain = 0
KCO1 121915Z 30004KT 35/09 A30 RMK A01 T03450087  RH  021%=      5-min Rain = 0
KCO1 121916Z 32005KT 34/09 A30 RMK A01 T03430087  RH  021%=      5-min Rain = 0
KCO1 121917Z 35003KT 34/09 A30 RMK A01 T03370086  RH  021%=      5-min Rain = 0
KCO1 121918Z 32003KT 34/09 A30 RMK A01 T03350087  RH  022%=      5-min Rain = 0
KCO1 121919Z 09000KT 33/09 A30 RMK A01 T03330087  RH  022%=      5-min Rain = 0
KCO1 121920Z 02001KT 33/09 A30 RMK A01 T03330087  RH  022%=      5-min Rain = 0
KCO1 121921Z 00000KT 33/09 A30 RMK A01 T03340087  RH  022%=      5-min Rain = 0
KCO1 121922Z 02002KT 34/09 A30 RMK A01 T03370089  RH  022%=      5-min Rain = 0
KCO1 121923Z 05004KT 34/09 A30 RMK A01 T03390089  RH  021%=      5-min Rain = 0
KCO1 121924Z 16002KT 34/09 A30 RMK A01 T03420089  RH  021%=      5-min Rain = 0
KCO1 121925Z 25003KT 34/09 A2999 RMK A01 T03440090  RH  021%=      5-min Rain = 0
KCO1 121926Z 27004KT 35/09 A2999 RMK A01 T03450090  RH  021%=      5-min Rain = 0
KCO1 121927Z 27003KT 35/09 A2999 RMK A01 T03460089  RH  021%=      5-min Rain = 0
KCO1 121928Z 26001KT 34/09 A2999 RMK A01 T03440089  RH  021%=      5-min Rain = 0
KCO1 121929Z 25001KT 34/09 A2999 RMK A01 T03440089  RH  021%=      5-min Rain = 0
KCO1 121930Z 28002KT 35/09 A2999 RMK A01 T03470090  RH  021%=      5-min Rain = 0
KCO1 121931Z 32004KT 35/09 A2999 RMK A01 T03470088  RH  020%=      5-min Rain = 0
KCO1 121932Z 34004KT 35/09 A2999 RMK A01 T03450088  RH  021%=      5-min Rain = 0
KCO1 121933Z 02003KT 34/09 A2999 RMK A01 T03430085  RH  021%=      5-min Rain = 0
KCO1 121934Z 36005KT 34/09 A2999 RMK A01 T03400086  RH  021%=      5-min Rain = 0
KCO1 121935Z 35003KT 34/09 A2999 RMK A01 T03380085  RH  021%=      5-min Rain = 0
KCO1 121936Z 34003KT 34/09 A2999 RMK A01 T03370086  RH  021%=      5-min Rain = 0
KCO1 121937Z 34005KT 34/09 A2999 RMK A01 T03380087  RH  021%=      5-min Rain = 0
KCO1 121938Z 30002KT 34/09 A2999 RMK A01 T03390087  RH  021%=      5-min Rain = 0
KCO1 121939Z 21000KT 34/09 A2999 RMK A01 T03390087  RH  021%=      5-min Rain = 0
KCO1 121940Z 21000KT 34/09 A2999 RMK A01 T03390086  RH  021%=      5-min Rain = 0
KCO1 121941Z 03000KT 34/09 A2998 RMK A01 T03410087  RH  021%=      5-min Rain = 0
KCO1 121942Z 08004KT 34/09 A2998 RMK A01 T03410087  RH  021%=      5-min Rain = 0
KCO1 121943Z 07004KT 34/09 A2998 RMK A01 T03430088  RH  021%=      5-min Rain = 0
KCO1 121944Z 08003KT 35/09 A2998 RMK A01 T03460087  RH  020%=      5-min Rain = 0
KCO1 121945Z 07005KT 35/09 A2998 RMK A01 T03450086  RH  020%=      5-min Rain = 0
KCO1 121946Z 08007KT 34/09 A2998 RMK A01 T03430085  RH  021%=      5-min Rain = 0
KCO1 121947Z 09006KT 34/09 A2998 RMK A01 T03410085  RH  021%=      5-min Rain = 0
KCO1 121948Z 10003KT 34/08 A2998 RMK A01 T03380084  RH  021%=      5-min Rain = 0
KCO1 121949Z 05003KT 34/08 A2998 RMK A01 T03370084  RH  021%=      5-min Rain = 0
KCO1 121950Z 05005KT 34/08 A2998 RMK A01 T03360083  RH  021%=      5-min Rain = 0
KCO1 121951Z 03005KT 34/08 A2998 RMK A01 T03370083  RH  021%=      5-min Rain = 0
KCO1 121952Z 04005KT 34/08 A2998 RMK A01 T03380083  RH  021%=      5-min Rain = 0
KCO1 121953Z 05007KT 34/08 A2998 RMK A01 T03390084  RH  021%=      5-min Rain = 0
KCO1 121954Z 04005KT 34/08 A2998 RMK A01 T03400084  RH  021%=      5-min Rain = 0
KCO1 121955Z 04006KT 34/09 A2998 RMK A01 T03410085  RH  021%=      5-min Rain = 0
KCO1 121956Z 04006KT 34/08 A2998 RMK A01 T03430084  RH  020%=      5-min Rain = 0
KCO1 121957Z 05004KT 34/08 A2998 RMK A01 T03420084  RH  021%=      5-min Rain = 0
KCO1 121958Z 05000KT 34/08 A2998 RMK A01 T03410084  RH  021%=      5-min Rain = 0
KCO1 121959Z 35001KT 34/08 A2998 RMK A01 T03420084  RH  020%=      5-min Rain = 0
KCO1 122000Z 02001KT 34/08 A2998 RMK A01 T03440082  RH  020%=      5-min Rain = 0
KCO1 122001Z 01002KT 35/08 A2997 RMK A01 T03450083  RH  020%=      5-min Rain = 0
KCO1 122002Z 01002KT 35/08 A2997 RMK A01 T03450083  RH  020%=      5-min Rain = 0
KCO1 122003Z 34000KT 34/08 A2997 RMK A01 T03440082  RH  020%=      5-min Rain = 0
KCO1 122004Z 23001KT 34/08 A2997 RMK A01 T03440083  RH  020%=      5-min Rain = 0
KCO1 122005Z 24002KT 35/08 A2997 RMK A01 T03460083  RH  020%=      5-min Rain = 0
KCO1 122006Z 06001KT 35/08 A2997 RMK A01 T03450083  RH  020%=      5-min Rain = 0
KCO1 122007Z 08003KT 35/08 A2997 RMK A01 T03450084  RH  020%=      5-min Rain = 0
KCO1 122008Z 08004KT 35/08 A2997 RMK A01 T03460083  RH  020%=      5-min Rain = 0
KCO1 122009Z 10002KT 35/08 A2997 RMK A01 T03460083  RH  020%=      5-min Rain = 0
KCO1 122010Z 10001KT 35/09 A2997 RMK A01 T03480085  RH  020%=      5-min Rain = 0
KCO1 122011Z 07004KT 35/09 A2997 RMK A01 T03510085  RH  020%=      5-min Rain = 0
KCO1 122012Z 06005KT 35/08 A2997 RMK A01 T03520082  RH  019%=      5-min Rain = 0
KCO1 122013Z 06004KT 35/08 A2997 RMK A01 T03490081  RH  019%=      5-min Rain = 0
KCO1 122014Z 07004KT 35/08 A2997 RMK A01 T03460082  RH  020%=      5-min Rain = 0
KCO1 122015Z 06005KT 35/08 A2997 RMK A01 T03470084  RH  020%=      5-min Rain = 0
KCO1 122016Z 06002KT 35/08 A2997 RMK A01 T03480083  RH  020%=      5-min Rain = 0
KCO1 122017Z 11005KT 35/09 A2997 RMK A01 T03490085  RH  020%=      5-min Rain = 0
KCO1 122018Z 11005KT 35/08 A2997 RMK A01 T03500083  RH  019%=      5-min Rain = 0
KCO1 122019Z 11002KT 35/08 A2996 RMK A01 T03470082  RH  020%=      5-min Rain = 0
KCO1 122020Z 12003KT 35/08 A2996 RMK A01 T03450082  RH  020%=      5-min Rain = 0
KCO1 122021Z 10004KT 35/08 A2996 RMK A01 T03450082  RH  020%=      5-min Rain = 0
KCO1 122022Z 11002KT 35/08 A2996 RMK A01 T03450083  RH  020%=      5-min Rain = 0
KCO1 122023Z 12002KT 35/08 A2996 RMK A01 T03460083  RH  020%=      5-min Rain = 0
KCO1 122024Z 13001KT 35/08 A2996 RMK A01 T03480083  RH  020%=      5-min Rain = 0
KCO1 122025Z 04002KT 35/08 A2996 RMK A01 T03490082  RH  019%=      5-min Rain = 0
KCO1 122026Z 04001KT 35/08 A2996 RMK A01 T03500083  RH  019%=      5-min Rain = 0
KCO1 122027Z 01003KT 35/08 A2996 RMK A01 T03500083  RH  019%=      5-min Rain = 0
KCO1 122028Z 01002KT 35/08 A2996 RMK A01 T03500082  RH  019%=      5-min Rain = 0
KCO1 122029Z 00000KT 35/08 A2996 RMK A01 T03490081  RH  019%=      5-min Rain = 0
KCO1 122030Z 35003KT 35/08 A2996 RMK A01 T03480081  RH  019%=      5-min Rain = 0
KCO1 122031Z 35006KT 35/08 A2996 RMK A01 T03480081  RH  019%=      5-min Rain = 0
KCO1 122032Z 33005KT 35/08 A2996 RMK A01 T03480081  RH  019%=      5-min Rain = 0
KCO1 122033Z 03003KT 35/08 A2996 RMK A01 T03480080  RH  019%=      5-min Rain = 0
KCO1 122034Z 03003KT 35/08 A2996 RMK A01 T03470080  RH  019%=      5-min Rain = 0
KCO1 122035Z 35004KT 35/08 A2995 RMK A01 T03480082  RH  020%=      5-min Rain = 0
KCO1 122036Z 00003KT 35/09 A2995 RMK A01 T03520085  RH  020%=      5-min Rain = 0
KCO1 122037Z 00005KT 35/08 A2995 RMK A01 T03540083  RH  019%=      5-min Rain = 0
KCO1 122038Z 33005KT 36/08 A2995 RMK A01 T03550082  RH  019%=      5-min Rain = 0
KCO1 122039Z 32004KT 35/08 A2995 RMK A01 T03510082  RH  019%=      5-min Rain = 0
KCO1 122040Z 30005KT 35/08 A2995 RMK A01 T03500082  RH  019%=      5-min Rain = 0
KCO1 122041Z 31006KT 35/08 A2995 RMK A01 T03500082  RH  019%=      5-min Rain = 0
KCO1 122042Z 35003KT 35/08 A2995 RMK A01 T03480082  RH  020%=      5-min Rain = 0
KCO1 122043Z 34004KT 35/08 A2995 RMK A01 T03490084  RH  020%=      5-min Rain = 0
KCO1 122044Z 33005KT 35/09 A2995 RMK A01 T03520085  RH  019%=      5-min Rain = 0
KCO1 122045Z 02003KT 36/08 A2995 RMK A01 T03560084  RH  019%=      5-min Rain = 0
KCO1 122046Z 03004KT 36/08 A2995 RMK A01 T03560083  RH  019%=      5-min Rain = 0
KCO1 122047Z 05005KT 35/08 A2995 RMK A01 T03540081  RH  019%=      5-min Rain = 0
KCO1 122048Z 06005KT 35/08 A2995 RMK A01 T03530082  RH  019%=      5-min Rain = 0
KCO1 122049Z 08004KT 35/08 A2995 RMK A01 T03510082  RH  019%=      5-min Rain = 0
KCO1 122050Z 03003KT 35/08 A2995 RMK A01 T03530084  RH  019%=      5-min Rain = 0
KCO1 122051Z 33006KT 36/08 A2995 RMK A01 T03560083  RH  019%=      5-min Rain = 0
KCO1 122052Z 34006KT 36/08 A2995 RMK A01 T03560083  RH  019%=      5-min Rain = 0
KCO1 122053Z 34006KT 35/08 A2995 RMK A01 T03540083  RH  019%=      5-min Rain = 0
KCO1 122054Z 35005KT 35/08 A2994 RMK A01 T03500081  RH  019%=      5-min Rain = 0
KCO1 122055Z 35005KT 35/08 A2994 RMK A01 T03480082  RH  019%=      5-min Rain = 0
KCO1 122056Z 00004KT 35/08 A2994 RMK A01 T03480081  RH  019%=      5-min Rain = 0
KCO1 122057Z 03004KT 35/08 A2994 RMK A01 T03460080  RH  019%=      5-min Rain = 0
KCO1 122058Z 04004KT 35/08 A2994 RMK A01 T03460081  RH  020%=      5-min Rain = 0
KCO1 122059Z 03005KT 35/08 A2994 RMK A01 T03470080  RH  019%=      5-min Rain = 0
KCO1 122100Z 03005KT 35/08 A2994 RMK A01 T03470080  RH  019%=      5-min Rain = 0
KCO1 122101Z 01005KT 35/08 A2994 RMK A01 T03470080  RH  019%=      5-min Rain = 0
KCO1 122102Z 34005KT 35/08 A2994 RMK A01 T03470081  RH  019%=      5-min Rain = 0
KCO1 122103Z 35005KT 35/08 A2994 RMK A01 T03480080  RH  019%=      5-min Rain = 0
KCO1 122104Z 36004KT 35/08 A2994 RMK A01 T03490080  RH  019%=      5-min Rain = 0
KCO1 122105Z 35003KT 35/08 A2994 RMK A01 T03500079  RH  019%=      5-min Rain = 0
KCO1 122106Z 33002KT 35/08 A2994 RMK A01 T03490079  RH  019%=      5-min Rain = 0
KCO1 122107Z 36003KT 35/08 A2994 RMK A01 T03480080  RH  019%=      5-min Rain = 0
KCO1 122108Z 34002KT 35/08 A2994 RMK A01 T03480080  RH  019%=      5-min Rain = 0
KCO1 122109Z 34004KT 35/08 A2994 RMK A01 T03490081  RH  019%=      5-min Rain = 0
KCO1 122110Z 01004KT 35/08 A2994 RMK A01 T03500079  RH  019%=      5-min Rain = 0
KCO1 122111Z 02002KT 35/08 A2994 RMK A01 T03490077  RH  019%=      5-min Rain = 0
KCO1 122112Z 34002KT 35/08 A2994 RMK A01 T03480077  RH  019%=      5-min Rain = 0
KCO1 122113Z 30003KT 35/08 A2994 RMK A01 T03480077  RH  019%=      5-min Rain = 0
KCO1 122114Z 29001KT 35/08 A2993 RMK A01 T03490079  RH  019%=      5-min Rain = 0
KCO1 122115Z 05001KT 35/08 A2993 RMK A01 T03500079  RH  019%=      5-min Rain = 0
KCO1 122116Z 08000KT 35/08 A2993 RMK A01 T03530079  RH  019%=      5-min Rain = 0
KCO1 122117Z 07001KT 36/08 A2993 RMK A01 T03560080  RH  018%=      5-min Rain = 0
KCO1 122118Z 07003KT 36/08 A2993 RMK A01 T03570080  RH  018%=      5-min Rain = 0
KCO1 122119Z 07002KT 36/08 A2993 RMK A01 T03570081  RH  019%=      5-min Rain = 0
KCO1 122120Z 06001KT 36/08 A2993 RMK A01 T03580080  RH  018%=      5-min Rain = 0
KCO1 122121Z 35003KT 36/08 A2993 RMK A01 T03570080  RH  018%=      5-min Rain = 0
KCO1 122122Z 35003KT 36/08 A2993 RMK A01 T03570080  RH  018%=      5-min Rain = 0
KCO1 122123Z 09001KT 36/08 A2993 RMK A01 T03560079  RH  018%=      5-min Rain = 0
KCO1 122124Z 10001KT 36/08 A2993 RMK A01 T03570080  RH  018%=      5-min Rain = 0
KCO1 122125Z 04002KT 36/08 A2993 RMK A01 T03580080  RH  018%=      5-min Rain = 0
KCO1 122126Z 33003KT 36/08 A2993 RMK A01 T03590081  RH  018%=      5-min Rain = 0
KCO1 122127Z 36004KT 36/08 A2993 RMK A01 T03610081  RH  018%=      5-min Rain = 0
KCO1 122128Z 34005KT 36/08 A2993 RMK A01 T03610081  RH  018%=      5-min Rain = 0
KCO1 122129Z 35003KT 36/08 A2993 RMK A01 T03580079  RH  018%=      5-min Rain = 0
KCO1 122130Z 35004KT 35/08 A2993 RMK A01 T03540080  RH  019%=      5-min Rain = 0
KCO1 122131Z 36003KT 35/08 A2993 RMK A01 T03540080  RH  019%=      5-min Rain = 0
KCO1 122132Z 34003KT 35/08 A2993 RMK A01 T03540079  RH  019%=      5-min Rain = 0
KCO1 122133Z 33002KT 35/08 A2993 RMK A01 T03540079  RH  018%=      5-min Rain = 0
KCO1 122134Z 35004KT 35/08 A2993 RMK A01 T03530079  RH  019%=      5-min Rain = 0
KCO1 122135Z 02003KT 35/08 A2993 RMK A01 T03530080  RH  019%=      5-min Rain = 0
KCO1 122136Z 01002KT 35/08 A2993 RMK A01 T03530080  RH  019%=      5-min Rain = 0
KCO1 122137Z 35002KT 35/08 A2993 RMK A01 T03540078  RH  018%=      5-min Rain = 0
KCO1 122138Z 34001KT 35/08 A2993 RMK A01 T03530078  RH  019%=      5-min Rain = 0
KCO1 122139Z 35000KT 35/08 A2993 RMK A01 T03520078  RH  019%=      5-min Rain = 0
KCO1 122140Z 02003KT 35/08 A2992 RMK A01 T03530078  RH  019%=      5-min Rain = 0
KCO1 122141Z 00006KT 35/08 A2992 RMK A01 T03520077  RH  018%=      5-min Rain = 0
KCO1 122142Z 28005KT 35/08 A2992 RMK A01 T03510078  RH  019%=      5-min Rain = 0
KCO1 122143Z 28003KT 35/08 A2992 RMK A01 T03520077  RH  018%=      5-min Rain = 0
KCO1 122144Z 24003KT 35/08 A2992 RMK A01 T03520079  RH  019%=      5-min Rain = 0
KCO1 122145Z 25004KT 36/08 A2992 RMK A01 T03550077  RH  018%=      5-min Rain = 0
KCO1 122146Z 27003KT 36/08 A2992 RMK A01 T03550075  RH  018%=      5-min Rain = 0
KCO1 122147Z 26003KT 36/08 A2992 RMK A01 T03550076  RH  018%=      5-min Rain = 0
KCO1 122148Z 22003KT 36/08 A2992 RMK A01 T03550077  RH  018%=      5-min Rain = 0
KCO1 122149Z 23002KT 36/08 A2992 RMK A01 T03560077  RH  018%=      5-min Rain = 0
KCO1 122150Z 25001KT 36/08 A2992 RMK A01 T03580077  RH  018%=      5-min Rain = 0
KCO1 122151Z 16002KT 36/08 A2992 RMK A01 T03600080  RH  018%=      5-min Rain = 0
KCO1 122152Z 15001KT 36/08 A2992 RMK A01 T03600080  RH  018%=      5-min Rain = 0
KCO1 122153Z 13002KT 36/08 A2992 RMK A01 T03610082  RH  018%=      5-min Rain = 0
KCO1 122154Z 13002KT 36/08 A2992 RMK A01 T03630082  RH  018%=      5-min Rain = 0
KCO1 122155Z 21003KT 36/08 A2992 RMK A01 T03620080  RH  018%=      5-min Rain = 0
KCO1 122156Z 20003KT 36/08 A2992 RMK A01 T03620080  RH  018%=      5-min Rain = 0
KCO1 122157Z 18002KT 36/08 A2992 RMK A01 T03620080  RH  018%=      5-min Rain = 0
KCO1 122158Z 14004KT 36/08 A2991 RMK A01 T03620081  RH  018%=      5-min Rain = 0
KCO1 122159Z 13003KT 36/08 A2991 RMK A01 T03600079  RH  018%=      5-min Rain = 0
KCO1 122200Z 11005KT 36/08 A2991 RMK A01 T03580080  RH  018%=      5-min Rain = 0
KCO1 122201Z 11004KT 36/08 A2991 RMK A01 T03580080  RH  018%=      5-min Rain = 0
KCO1 122202Z 12001KT 36/08 A2991 RMK A01 T03570081  RH  018%=      5-min Rain = 0
KCO1 122203Z 36002KT 36/08 A2991 RMK A01 T03590081  RH  018%=      5-min Rain = 0
KCO1 122204Z 03002KT 36/08 A2991 RMK A01 T03590075  RH  018%=      5-min Rain = 0
KCO1 122205Z 07002KT 36/08 A2991 RMK A01 T03570075  RH  018%=      5-min Rain = 0
KCO1 122206Z 09004KT 36/08 A2991 RMK A01 T03570078  RH  018%=      5-min Rain = 0
KCO1 122207Z 07002KT 36/08 A2991 RMK A01 T03560076  RH  018%=      5-min Rain = 0
KCO1 122208Z 06003KT 36/08 A2991 RMK A01 T03570078  RH  018%=      5-min Rain = 0
KCO1 122209Z 11003KT 36/08 A2991 RMK A01 T03580077  RH  018%=      5-min Rain = 0
KCO1 122210Z 18003KT 36/08 A2991 RMK A01 T03580079  RH  018%=      5-min Rain = 0
KCO1 122211Z 14003KT 36/08 A2991 RMK A01 T03580079  RH  018%=      5-min Rain = 0
KCO1 122212Z 15002KT 36/08 A2991 RMK A01 T03590080  RH  018%=      5-min Rain = 0
KCO1 122213Z 09003KT 36/08 A2991 RMK A01 T03600080  RH  018%=      5-min Rain = 0
KCO1 122214Z 10003KT 36/08 A2991 RMK A01 T03610078  RH  018%=      5-min Rain = 0
KCO1 122215Z 08004KT 36/08 A2991 RMK A01 T03620078  RH  018%=      5-min Rain = 0
KCO1 122216Z 10003KT 36/08 A2991 RMK A01 T03610077  RH  018%=      5-min Rain = 0
KCO1 122217Z 10003KT 36/08 A2991 RMK A01 T03600077  RH  018%=      5-min Rain = 0
KCO1 122218Z 08002KT 36/08 A2991 RMK A01 T03600077  RH  018%=      5-min Rain = 0
KCO1 122219Z 06003KT 36/08 A2991 RMK A01 T03580077  RH  018%=      5-min Rain = 0
KCO1 122220Z 13003KT 36/08 A2991 RMK A01 T03590077  RH  018%=      5-min Rain = 0
KCO1 122221Z 19003KT 36/08 A2991 RMK A01 T03590078  RH  018%=      5-min Rain = 0
KCO1 122222Z 21005KT 36/08 A2991 RMK A01 T03590077  RH  018%=      5-min Rain = 0
KCO1 122223Z 22004KT 36/08 A2991 RMK A01 T03600077  RH  018%=      5-min Rain = 0
KCO1 122224Z 21004KT 36/08 A2991 RMK A01 T03590077  RH  018%=      5-min Rain = 0
KCO1 122225Z 19004KT 36/08 A2991 RMK A01 T03590078  RH  018%=      5-min Rain = 0
KCO1 122226Z 18004KT 36/08 A2991 RMK A01 T03590078  RH  018%=      5-min Rain = 0
KCO1 122227Z 20004KT 36/08 A2991 RMK A01 T03570078  RH  018%=      5-min Rain = 0
KCO1 122228Z 23003KT 36/08 A2991 RMK A01 T03570077  RH  018%=      5-min Rain = 0
KCO1 122229Z 23001KT 36/08 A2991 RMK A01 T03580077  RH  018%=      5-min Rain = 0
KCO1 122230Z 10001KT 36/08 A2991 RMK A01 T03600078  RH  018%=      5-min Rain = 0
KCO1 122231Z 12004KT 36/08 A2991 RMK A01 T03620079  RH  018%=      5-min Rain = 0
KCO1 122232Z 11004KT 36/08 A2991 RMK A01 T03620078  RH  018%=      5-min Rain = 0
KCO1 122233Z 09003KT 36/08 A2991 RMK A01 T03590077  RH  018%=      5-min Rain = 0
KCO1 122234Z 10003KT 36/08 A2991 RMK A01 T03570076  RH  018%=      5-min Rain = 0
KCO1 122235Z 08002KT 36/08 A2991 RMK A01 T03560077  RH  018%=      5-min Rain = 0
KCO1 122236Z 07002KT 36/08 A2991 RMK A01 T03550076  RH  018%=      5-min Rain = 0
KCO1 122237Z 05003KT 36/08 A2991 RMK A01 T03550076  RH  018%=      5-min Rain = 0
KCO1 122238Z 07003KT 35/08 A2991 RMK A01 T03530076  RH  018%=      5-min Rain = 0
KCO1 122239Z 04002KT 35/08 A2991 RMK A01 T03530076  RH  018%=      5-min Rain = 0
KCO1 122240Z 01002KT 35/08 A2991 RMK A01 T03540075  RH  018%=      5-min Rain = 0
KCO1 122241Z 01003KT 35/08 A2991 RMK A01 T03540075  RH  018%=      5-min Rain = 0
KCO1 122242Z 00003KT 36/07 A2991 RMK A01 T03550073  RH  018%=      5-min Rain = 0
KCO1 122243Z 01003KT 35/07 A2991 RMK A01 T03540072  RH  018%=      5-min Rain = 0
KCO1 122244Z 02003KT 35/07 A299 RMK A01 T03530071  RH  018%=      5-min Rain = 0
KCO1 122245Z 01002KT 35/07 A299 RMK A01 T03520072  RH  018%=      5-min Rain = 0
KCO1 122246Z 00002KT 35/07 A299 RMK A01 T03520072  RH  018%=      5-min Rain = 0
KCO1 122247Z 02002KT 35/07 A299 RMK A01 T03530071  RH  018%=      5-min Rain = 0
KCO1 122248Z 03002KT 35/07 A299 RMK A01 T03520070  RH  018%=      5-min Rain = 0
KCO1 122249Z 05002KT 35/07 A299 RMK A01 T03510070  RH  018%=      5-min Rain = 0
KCO1 122250Z 16002KT 35/07 A299 RMK A01 T03510071  RH  018%=      5-min Rain = 0
KCO1 122251Z 15002KT 35/07 A299 RMK A01 T03520073  RH  018%=      5-min Rain = 0
KCO1 122252Z 14003KT 35/07 A299 RMK A01 T03530072  RH  018%=      5-min Rain = 0
KCO1 122253Z 16003KT 35/07 A299 RMK A01 T03530072  RH  018%=      5-min Rain = 0
KCO1 122254Z 15003KT 35/07 A299 RMK A01 T03530071  RH  018%=      5-min Rain = 0
KCO1 122255Z 17003KT 36/07 A299 RMK A01 T03550074  RH  018%=      5-min Rain = 0
KCO1 122256Z 19002KT 36/07 A299 RMK A01 T03550072  RH  018%=      5-min Rain = 0
KCO1 122257Z 18002KT 36/07 A299 RMK A01 T03550071  RH  017%=      5-min Rain = 0
KCO1 122258Z 23003KT 36/07 A299 RMK A01 T03550072  RH  018%=      5-min Rain = 0
KCO1 122259Z 23003KT 36/07 A299 RMK A01 T03560072  RH  017%=      5-min Rain = 0
KCO1 122300Z 26001KT 36/07 A299 RMK A01 T03560071  RH  017%=      5-min Rain = 0
KCO1 122301Z 35002KT 36/07 A299 RMK A01 T03560072  RH  017%=      5-min Rain = 0
KCO1 122302Z 02003KT 36/07 A299 RMK A01 T03560071  RH  017%=      5-min Rain = 0
KCO1 122303Z 02003KT 36/07 A299 RMK A01 T03560071  RH  017%=      5-min Rain = 0
KCO1 122304Z 35005KT 36/07 A299 RMK A01 T03550070  RH  017%=      5-min Rain = 0
KCO1 122305Z 33004KT 36/07 A299 RMK A01 T03550070  RH  017%=      5-min Rain = 0
KCO1 122306Z 31002KT 35/07 A299 RMK A01 T03520071  RH  018%=      5-min Rain = 0
KCO1 122307Z 29002KT 35/07 A299 RMK A01 T03520072  RH  018%=      5-min Rain = 0
KCO1 122308Z 34003KT 35/07 A299 RMK A01 T03520071  RH  018%=      5-min Rain = 0
KCO1 122309Z 36002KT 35/07 A299 RMK A01 T03520071  RH  018%=      5-min Rain = 0
KCO1 122310Z 34002KT 35/07 A299 RMK A01 T03530071  RH  018%=      5-min Rain = 0
KCO1 122311Z 34001KT 35/07 A299 RMK A01 T03540071  RH  018%=      5-min Rain = 0
KCO1 122312Z 35001KT 35/07 A299 RMK A01 T03540072  RH  018%=      5-min Rain = 0
KCO1 122313Z 01000KT 36/07 A299 RMK A01 T03550071  RH  018%=      5-min Rain = 0
KCO1 122314Z 00002KT 36/07 A299 RMK A01 T03560073  RH  018%=      5-min Rain = 0
KCO1 122315Z 36002KT 36/07 A299 RMK A01 T03570071  RH  017%=      5-min Rain = 0
KCO1 122316Z 03001KT 36/07 A299 RMK A01 T03550070  RH  017%=      5-min Rain = 0
KCO1 122317Z 01001KT 36/07 A299 RMK A01 T03550070  RH  017%=      5-min Rain = 0
KCO1 122318Z 33002KT 36/07 A299 RMK A01 T03560070  RH  017%=      5-min Rain = 0
KCO1 122319Z 34003KT 36/07 A299 RMK A01 T03560070  RH  017%=      5-min Rain = 0
KCO1 122320Z 35003KT 36/07 A299 RMK A01 T03550068  RH  017%=      5-min Rain = 0
KCO1 122321Z 34003KT 35/07 A299 RMK A01 T03540070  RH  017%=      5-min Rain = 0
KCO1 122322Z 35004KT 35/07 A299 RMK A01 T03540070  RH  017%=      5-min Rain = 0
KCO1 122323Z 00003KT 35/07 A299 RMK A01 T03530069  RH  017%=      5-min Rain = 0
KCO1 122324Z 35002KT 35/07 A299 RMK A01 T03520069  RH  017%=      5-min Rain = 0
KCO1 122325Z 34001KT 35/07 A299 RMK A01 T03510069  RH  018%=      5-min Rain = 0
KCO1 122326Z 34000KT 35/07 A299 RMK A01 T03510069  RH  018%=      5-min Rain = 0
KCO1 122327Z 01001KT 35/07 A299 RMK A01 T03510068  RH  017%=      5-min Rain = 0
KCO1 122328Z 01001KT 35/07 A299 RMK A01 T03510068  RH  017%=      5-min Rain = 0
KCO1 122329Z 00000KT 35/07 A299 RMK A01 T03510069  RH  018%=      5-min Rain = 0
KCO1 122330Z 35000KT 35/07 A299 RMK A01 T03520069  RH  018%=      5-min Rain = 0
KCO1 122331Z 30001KT 35/07 A299 RMK A01 T03520069  RH  018%=      5-min Rain = 0
KCO1 122332Z 30001KT 35/07 A299 RMK A01 T03520069  RH  017%=      5-min Rain = 0
KCO1 122333Z 33000KT 35/07 A299 RMK A01 T03530069  RH  017%=      5-min Rain = 0
KCO1 122334Z 22002KT 36/07 A299 RMK A01 T03550070  RH  017%=      5-min Rain = 0
KCO1 122335Z 24001KT 36/07 A299 RMK A01 T03570070  RH  017%=      5-min Rain = 0
KCO1 122336Z 18000KT 36/07 A299 RMK A01 T03580070  RH  017%=      5-min Rain = 0
KCO1 122337Z 23001KT 36/07 A299 RMK A01 T03570071  RH  017%=      5-min Rain = 0
KCO1 122338Z 25001KT 36/07 A299 RMK A01 T03560071  RH  017%=      5-min Rain = 0
KCO1 122339Z 20000KT 36/07 A2989 RMK A01 T03550070  RH  017%=      5-min Rain = 0
KCO1 122340Z 18001KT 36/07 A2989 RMK A01 T03560073  RH  018%=      5-min Rain = 0
KCO1 122341Z 16001KT 36/07 A2989 RMK A01 T03570072  RH  017%=      5-min Rain = 0
KCO1 122342Z 15001KT 36/07 A2989 RMK A01 T03580074  RH  017%=      5-min Rain = 0
KCO1 122343Z 12001KT 36/07 A2989 RMK A01 T03590072  RH  017%=      5-min Rain = 0
KCO1 122344Z 16001KT 36/07 A2989 RMK A01 T03580072  RH  017%=      5-min Rain = 0
KCO1 122345Z 14003KT 36/07 A2989 RMK A01 T03580074  RH  018%=      5-min Rain = 0
KCO1 122346Z 12003KT 36/08 A2989 RMK A01 T03560076  RH  018%=      5-min Rain = 0
KCO1 122347Z 12003KT 36/08 A2989 RMK A01 T03550076  RH  018%=      5-min Rain = 0
KCO1 122348Z 11002KT 35/07 A2989 RMK A01 T03530073  RH  018%=      5-min Rain = 0
KCO1 122349Z 08002KT 35/07 A2989 RMK A01 T03520073  RH  018%=      5-min Rain = 0
KCO1 122350Z 31001KT 35/07 A2989 RMK A01 T03520074  RH  018%=      5-min Rain = 0
KCO1 122351Z 25002KT 35/07 A2989 RMK A01 T03520073  RH  018%=      5-min Rain = 0
KCO1 122352Z 22003KT 35/07 A2989 RMK A01 T03520074  RH  018%=      5-min Rain = 0
KCO1 122353Z 20004KT 35/08 A2989 RMK A01 T03530075  RH  018%=      5-min Rain = 0
KCO1 122354Z 17005KT 35/08 A2989 RMK A01 T03530077  RH  018%=      5-min Rain = 0
KCO1 122355Z 17004KT 35/08 A2989 RMK A01 T03510077  RH  019%=      5-min Rain = 0
KCO1 122356Z 17003KT 35/08 A2989 RMK A01 T03500076  RH  019%=      5-min Rain = 0
KCO1 122357Z 19003KT 35/08 A2989 RMK A01 T03490075  RH  019%=      5-min Rain = 0
KCO1 122358Z 15003KT 35/08 A2989 RMK A01 T03480076  RH  019%=      5-min Rain = 0
KCO1 122359Z 15003KT 35/08 A2989 RMK A01 T03480077  RH  019%=      5-min Rain = 0
KCO1 130000Z 17002KT 35/08 A2989 RMK A01 T03480077  RH  019%=      5-min Rain = 0
KCO1 130001Z 15003KT 35/08 A2989 RMK A01 T03480076  RH  019%=      5-min Rain = 0
KCO1 130002Z 14002KT 35/08 A2989 RMK A01 T03480076  RH  019%=      5-min Rain = 0
KCO1 130003Z 14003KT 35/08 A2989 RMK A01 T03480077  RH  019%=      5-min Rain = 0
KCO1 130004Z 13003KT 35/08 A2989 RMK A01 T03480077  RH  019%=      5-min Rain = 0
KCO1 130005Z 15003KT 35/08 A2989 RMK A01 T03480077  RH  019%=      5-min Rain = 0
KCO1 130006Z 16003KT 35/08 A2989 RMK A01 T03480077  RH  019%=      5-min Rain = 0
KCO1 130007Z 16003KT 35/08 A2989 RMK A01 T03470079  RH  019%=      5-min Rain = 0
KCO1 130008Z 17003KT 35/08 A2989 RMK A01 T03470079  RH  019%=      5-min Rain = 0
KCO1 130009Z 19003KT 35/08 A2989 RMK A01 T03460078  RH  019%=      5-min Rain = 0
KCO1 130010Z 20005KT 35/08 A2989 RMK A01 T03460083  RH  020%=      5-min Rain = 0
KCO1 130011Z 19005KT 35/09 A2989 RMK A01 T03450086  RH  020%=      5-min Rain = 0
KCO1 130012Z 19005KT 34/09 A2989 RMK A01 T03440087  RH  021%=      5-min Rain = 0
KCO1 130013Z 18004KT 34/09 A2989 RMK A01 T03430088  RH  021%=      5-min Rain = 0
KCO1 130014Z 17004KT 34/09 A2989 RMK A01 T03430089  RH  021%=      5-min Rain = 0
KCO1 130015Z 16003KT 34/09 A2989 RMK A01 T03420085  RH  020%=      5-min Rain = 0
KCO1 130016Z 17003KT 34/08 A2989 RMK A01 T03420082  RH  020%=      5-min Rain = 0
KCO1 130017Z 15004KT 34/08 A2989 RMK A01 T03420077  RH  020%=      5-min Rain = 0
KCO1 130018Z 15003KT 34/08 A2989 RMK A01 T03420076  RH  019%=      5-min Rain = 0
KCO1 130019Z 16003KT 34/08 A2989 RMK A01 T03430075  RH  019%=      5-min Rain = 0
KCO1 130020Z 16004KT 34/08 A2989 RMK A01 T03430076  RH  019%=      5-min Rain = 0
KCO1 130021Z 16004KT 34/08 A2989 RMK A01 T03430076  RH  019%=      5-min Rain = 0
KCO1 130022Z 16004KT 34/08 A2989 RMK A01 T03420075  RH  019%=      5-min Rain = 0
KCO1 130023Z 17004KT 34/08 A2989 RMK A01 T03420077  RH  020%=      5-min Rain = 0
KCO1 130024Z 17004KT 34/08 A2989 RMK A01 T03410077  RH  020%=      5-min Rain = 0
KCO1 130025Z 17003KT 34/08 A2989 RMK A01 T03410076  RH  019%=      5-min Rain = 0
KCO1 130026Z 17003KT 34/08 A2989 RMK A01 T03410075  RH  019%=      5-min Rain = 0
KCO1 130027Z 18003KT 34/08 A2989 RMK A01 T03410076  RH  020%=      5-min Rain = 0
KCO1 130028Z 17004KT 34/08 A2989 RMK A01 T03400077  RH  020%=      5-min Rain = 0
KCO1 130029Z 18003KT 34/08 A2989 RMK A01 T03390077  RH  020%=      5-min Rain = 0
KCO1 130030Z 17004KT 34/08 A2989 RMK A01 T03390078  RH  020%=      5-min Rain = 0
KCO1 130031Z 17005KT 34/08 A2989 RMK A01 T03380079  RH  020%=      5-min Rain = 0
KCO1 130032Z 17005KT 34/08 A2989 RMK A01 T03370079  RH  020%=      5-min Rain = 0
KCO1 130033Z 17004KT 34/08 A2989 RMK A01 T03370077  RH  020%=      5-min Rain = 0
KCO1 130034Z 17004KT 34/08 A2989 RMK A01 T03370076  RH  020%=      5-min Rain = 0
KCO1 130035Z 17004KT 34/08 A2989 RMK A01 T03360075  RH  020%=      5-min Rain = 0
KCO1 130036Z 17004KT 34/07 A2989 RMK A01 T03360074  RH  020%=      5-min Rain = 0
KCO1 130037Z 17003KT 34/07 A2989 RMK A01 T03360074  RH  020%=      5-min Rain = 0
KCO1 130038Z 16003KT 34/08 A2989 RMK A01 T03360075  RH  020%=      5-min Rain = 0
KCO1 130039Z 17003KT 34/08 A2989 RMK A01 T03350075  RH  020%=      5-min Rain = 0
KCO1 130040Z 17004KT 33/08 A2989 RMK A01 T03340076  RH  020%=      5-min Rain = 0
KCO1 130041Z 17003KT 33/08 A2989 RMK A01 T03330077  RH  020%=      5-min Rain = 0
KCO1 130042Z 17004KT 33/08 A2989 RMK A01 T03320077  RH  021%=      5-min Rain = 0
KCO1 130043Z 16004KT 33/08 A2989 RMK A01 T03310078  RH  021%=      5-min Rain = 0
KCO1 130044Z 16004KT 33/08 A2989 RMK A01 T03300076  RH  021%=      5-min Rain = 0
KCO1 130045Z 16004KT 33/07 A2989 RMK A01 T03300074  RH  021%=      5-min Rain = 0
KCO1 130046Z 16004KT 33/07 A2989 RMK A01 T03290074  RH  020%=      5-min Rain = 0
KCO1 130047Z 16003KT 33/07 A2989 RMK A01 T03290074  RH  020%=      5-min Rain = 0
KCO1 130048Z 17004KT 33/07 A2988 RMK A01 T03290073  RH  020%=      5-min Rain = 0
KCO1 130049Z 17004KT 33/07 A2988 RMK A01 T03300074  RH  020%=      5-min Rain = 0
KCO1 130050Z 17004KT 33/07 A2988 RMK A01 T03290074  RH  021%=      5-min Rain = 0
KCO1 130051Z 17004KT 33/08 A2988 RMK A01 T03280075  RH  021%=      5-min Rain = 0
KCO1 130052Z 17004KT 33/08 A2988 RMK A01 T03270077  RH  021%=      5-min Rain = 0
KCO1 130053Z 17004KT 33/08 A2988 RMK A01 T03250076  RH  021%=      5-min Rain = 0
KCO1 130054Z 17004KT 32/08 A2988 RMK A01 T03240077  RH  022%=      5-min Rain = 0
KCO1 130055Z 17004KT 32/08 A2988 RMK A01 T03230077  RH  022%=      5-min Rain = 0
KCO1 130056Z 16005KT 32/08 A2988 RMK A01 T03210077  RH  022%=      5-min Rain = 0
KCO1 130057Z 16004KT 32/08 A2988 RMK A01 T03200077  RH  022%=      5-min Rain = 0
KCO1 130058Z 17004KT 32/08 A2988 RMK A01 T03190078  RH  022%=      5-min Rain = 0
KCO1 130059Z 17004KT 32/08 A2988 RMK A01 T03180078  RH  023%=      5-min Rain = 0
KCO1 130100Z 17004KT 32/08 A2988 RMK A01 T03170078  RH  023%=      5-min Rain = 0
KCO1 130101Z 17004KT 32/08 A2988 RMK A01 T03150078  RH  023%=      5-min Rain = 0
KCO1 130102Z 16004KT 32/08 A2988 RMK A01 T03150077  RH  023%=      5-min Rain = 0
KCO1 130103Z 17004KT 32/08 A2988 RMK A01 T03150077  RH  023%=      5-min Rain = 0
KCO1 130104Z 17004KT 32/08 A2988 RMK A01 T03150075  RH  022%=      5-min Rain = 0
KCO1 130105Z 16004KT 32/08 A2988 RMK A01 T03160077  RH  023%=      5-min Rain = 0
KCO1 130106Z 16004KT 32/08 A2988 RMK A01 T03150078  RH  023%=      5-min Rain = 0
KCO1 130107Z 16004KT 31/08 A2988 RMK A01 T03130077  RH  023%=      5-min Rain = 0
KCO1 130108Z 16004KT 31/08 A2988 RMK A01 T03120079  RH  023%=      5-min Rain = 0
KCO1 130109Z 16004KT 31/08 A2988 RMK A01 T03110080  RH  024%=      5-min Rain = 0
KCO1 130110Z 16004KT 31/08 A2988 RMK A01 T03100079  RH  024%=      5-min Rain = 0
KCO1 130111Z 16004KT 31/08 A2988 RMK A01 T03090078  RH  024%=      5-min Rain = 0
KCO1 130112Z 16004KT 31/08 A2988 RMK A01 T03090078  RH  024%=      5-min Rain = 0
KCO1 130113Z 16004KT 31/08 A2988 RMK A01 T03090077  RH  024%=      5-min Rain = 0
KCO1 130114Z 16004KT 31/08 A2988 RMK A01 T03090077  RH  024%=      5-min Rain = 0
KCO1 130115Z 16004KT 31/08 A2988 RMK A01 T03090077  RH  024%=      5-min Rain = 0
KCO1 130116Z 17005KT 31/08 A2988 RMK A01 T03090077  RH  024%=      5-min Rain = 0
KCO1 130117Z 17005KT 31/08 A2988 RMK A01 T03080077  RH  024%=      5-min Rain = 0
KCO1 130118Z 17005KT 31/08 A2988 RMK A01 T03070078  RH  024%=      5-min Rain = 0
KCO1 130119Z 17005KT 31/08 A2988 RMK A01 T03050079  RH  024%=      5-min Rain = 0
KCO1 130120Z 17005KT 30/08 A2988 RMK A01 T03040080  RH  025%=      5-min Rain = 0
KCO1 130121Z 17005KT 30/08 A2988 RMK A01 T03030081  RH  025%=      5-min Rain = 0
KCO1 130122Z 17005KT 30/08 A2988 RMK A01 T03020081  RH  025%=      5-min Rain = 0
KCO1 130123Z 18005KT 30/08 A2988 RMK A01 T03010082  RH  025%=      5-min Rain = 0
KCO1 130124Z 18005KT 30/08 A2988 RMK A01 T03010082  RH  025%=      5-min Rain = 0
KCO1 130125Z 18006KT 30/08 A2988 RMK A01 T03010082  RH  025%=      5-min Rain = 0
KCO1 130126Z 18006KT 30/08 A2988 RMK A01 T03010082  RH  025%=      5-min Rain = 0
KCO1 130127Z 18006KT 30/08 A2988 RMK A01 T03010083  RH  026%=      5-min Rain = 0
KCO1 130128Z 18006KT 30/08 A2988 RMK A01 T03010083  RH  026%=      5-min Rain = 0
KCO1 130129Z 18006KT 30/08 A2988 RMK A01 T03000084  RH  026%=      5-min Rain = 0
KCO1 130130Z 18006KT 30/09 A2988 RMK A01 T02990085  RH  026%=      5-min Rain = 0
KCO1 130131Z 18006KT 30/09 A2988 RMK A01 T02970086  RH  027%=      5-min Rain = 0
KCO1 130132Z 18006KT 30/09 A2988 RMK A01 T02960087  RH  027%=      5-min Rain = 0
KCO1 130133Z 18006KT 29/09 A2988 RMK A01 T02940087  RH  027%=      5-min Rain = 0
KCO1 130134Z 18006KT 29/09 A2988 RMK A01 T02930089  RH  028%=      5-min Rain = 0
KCO1 130135Z 18005KT 29/09 A2988 RMK A01 T02910090  RH  028%=      5-min Rain = 0
KCO1 130136Z 18005KT 29/09 A2988 RMK A01 T02900089  RH  029%=      5-min Rain = 0
KCO1 130137Z 18005KT 29/09 A2988 RMK A01 T02890089  RH  029%=      5-min Rain = 0
KCO1 130138Z 18006KT 29/09 A2988 RMK A01 T02880089  RH  029%=      5-min Rain = 0
KCO1 130139Z 18005KT 29/09 A2988 RMK A01 T02880089  RH  029%=      5-min Rain = 0
KCO1 130140Z 18005KT 29/09 A2988 RMK A01 T02870088  RH  029%=      5-min Rain = 0
KCO1 130141Z 18006KT 29/09 A2988 RMK A01 T02870088  RH  029%=      5-min Rain = 0
KCO1 130142Z 18006KT 29/09 A2988 RMK A01 T02860088  RH  029%=      5-min Rain = 0
KCO1 130143Z 18005KT 29/09 A2989 RMK A01 T02860088  RH  029%=      5-min Rain = 0
KCO1 130144Z 18005KT 29/09 A2989 RMK A01 T02850088  RH  029%=      5-min Rain = 0
KCO1 130145Z 18005KT 28/09 A2989 RMK A01 T02840088  RH  029%=      5-min Rain = 0
KCO1 130146Z 18005KT 28/09 A2989 RMK A01 T02840088  RH  029%=      5-min Rain = 0
KCO1 130147Z 18005KT 28/09 A2989 RMK A01 T02830088  RH  029%=      5-min Rain = 0
KCO1 130148Z 18005KT 28/09 A2989 RMK A01 T02820088  RH  029%=      5-min Rain = 0
KCO1 130149Z 18006KT 28/09 A2989 RMK A01 T02810088  RH  030%=      5-min Rain = 0
KCO1 130150Z 17006KT 28/09 A2989 RMK A01 T02810089  RH  030%=      5-min Rain = 0
KCO1 130151Z 17006KT 28/09 A2989 RMK A01 T02800090  RH  030%=      5-min Rain = 0
KCO1 130152Z 17006KT 28/09 A2989 RMK A01 T02780088  RH  030%=      5-min Rain = 0
KCO1 130153Z 17006KT 28/09 A2989 RMK A01 T02770088  RH  030%=      5-min Rain = 0
KCO1 130154Z 17006KT 28/09 A2989 RMK A01 T02760088  RH  031%=      5-min Rain = 0
KCO1 130155Z 17006KT 28/09 A2989 RMK A01 T02760088  RH  031%=      5-min Rain = 0
KCO1 130156Z 17006KT 28/09 A2989 RMK A01 T02750087  RH  031%=      5-min Rain = 0
KCO1 130157Z 17006KT 28/09 A2989 RMK A01 T02750087  RH  031%=      5-min Rain = 0
KCO1 130158Z 17006KT 28/09 A2989 RMK A01 T02750086  RH  030%=      5-min Rain = 0
KCO1 130159Z 17006KT 28/09 A2989 RMK A01 T02750086  RH  030%=      5-min Rain = 0
KCO1 130200Z 17006KT 28/09 A2989 RMK A01 T02750088  RH  031%=      5-min Rain = 0
KCO1 130201Z 17006KT 28/09 A2989 RMK A01 T02750089  RH  031%=      5-min Rain = 0
KCO1 130202Z 17006KT 28/09 A2989 RMK A01 T02750089  RH  031%=      5-min Rain = 0
KCO1 130203Z 17006KT 28/09 A2989 RMK A01 T02750090  RH  031%=      5-min Rain = 0
KCO1 130204Z 17006KT 27/09 A2989 RMK A01 T02740090  RH  031%=      5-min Rain = 0
KCO1 130205Z 17006KT 27/09 A2989 RMK A01 T02740091  RH  032%=      5-min Rain = 0
KCO1 130206Z 17006KT 27/09 A2989 RMK A01 T02730091  RH  032%=      5-min Rain = 0
KCO1 130207Z 17005KT 27/09 A2989 RMK A01 T02730091  RH  032%=      5-min Rain = 0
KCO1 130208Z 17005KT 27/09 A2989 RMK A01 T02720091  RH  032%=      5-min Rain = 0
KCO1 130209Z 17006KT 27/09 A2989 RMK A01 T02710092  RH  032%=      5-min Rain = 0
KCO1 130210Z 17006KT 27/09 A2989 RMK A01 T02710092  RH  032%=      5-min Rain = 0
KCO1 130211Z 17006KT 27/09 A2989 RMK A01 T02700093  RH  033%=      5-min Rain = 0
KCO1 130212Z 17006KT 27/09 A2989 RMK A01 T02700094  RH  033%=      5-min Rain = 0
KCO1 130213Z 17006KT 27/09 A2989 RMK A01 T02690094  RH  033%=      5-min Rain = 0
KCO1 130214Z 17006KT 27/09 A2989 RMK A01 T02690093  RH  033%=      5-min Rain = 0
KCO1 130215Z 17006KT 27/09 A2989 RMK A01 T02690093  RH  033%=      5-min Rain = 0
KCO1 130216Z 17006KT 27/09 A2989 RMK A01 T02690092  RH  033%=      5-min Rain = 0
KCO1 130217Z 17006KT 27/09 A2989 RMK A01 T02680092  RH  033%=      5-min Rain = 0
KCO1 130218Z 17006KT 27/09 A2989 RMK A01 T02690093  RH  033%=      5-min Rain = 0
KCO1 130219Z 17006KT 27/09 A2989 RMK A01 T02680093  RH  033%=      5-min Rain = 0
KCO1 130220Z 17006KT 27/09 A2989 RMK A01 T02690094  RH  033%=      5-min Rain = 0
KCO1 130221Z 17006KT 27/10 A2989 RMK A01 T02690095  RH  033%=      5-min Rain = 0
KCO1 130222Z 18006KT 27/10 A2989 RMK A01 T02680096  RH  034%=      5-min Rain = 0
KCO1 130223Z 18006KT 27/10 A2989 RMK A01 T02690099  RH  034%=      5-min Rain = 0
KCO1 130224Z 18006KT 27/10 A299 RMK A01 T02680102  RH  035%=      5-min Rain = 0
KCO1 130225Z 18006KT 27/10 A299 RMK A01 T02680104  RH  036%=      5-min Rain = 0
KCO1 130226Z 18006KT 27/10 A299 RMK A01 T02680104  RH  036%=      5-min Rain = 0
KCO1 130227Z 18006KT 27/10 A299 RMK A01 T02680102  RH  035%=      5-min Rain = 0
KCO1 130228Z 18006KT 27/10 A299 RMK A01 T02680100  RH  035%=      5-min Rain = 0
KCO1 130229Z 18006KT 27/10 A299 RMK A01 T02680097  RH  034%=      5-min Rain = 0
KCO1 130230Z 18006KT 27/10 A299 RMK A01 T02680095  RH  034%=      5-min Rain = 0
KCO1 130231Z 18006KT 27/09 A299 RMK A01 T02680094  RH  033%=      5-min Rain = 0
KCO1 130232Z 18006KT 27/09 A299 RMK A01 T02680092  RH  033%=      5-min Rain = 0
KCO1 130233Z 18006KT 27/09 A299 RMK A01 T02690090  RH  032%=      5-min Rain = 0
KCO1 130234Z 18006KT 27/09 A299 RMK A01 T02700090  RH  032%=      5-min Rain = 0
KCO1 130235Z 18006KT 27/09 A299 RMK A01 T02700089  RH  032%=      5-min Rain = 0
KCO1 130236Z 18006KT 27/09 A299 RMK A01 T02700089  RH  032%=      5-min Rain = 0
KCO1 130237Z 18006KT 27/09 A299 RMK A01 T02700089  RH  032%=      5-min Rain = 0
KCO1 130238Z 18007KT 27/09 A299 RMK A01 T02700088  RH  032%=      5-min Rain = 0
KCO1 130239Z 18008KT 27/09 A299 RMK A01 T02690088  RH  032%=      5-min Rain = 0
KCO1 130240Z 18007KT 27/09 A299 RMK A01 T02690088  RH  032%=      5-min Rain = 0
KCO1 130241Z 18008KT 27/09 A299 RMK A01 T02680089  RH  032%=      5-min Rain = 0
KCO1 130242Z 18008KT 27/09 A299 RMK A01 T02670090  RH  033%=      5-min Rain = 0
KCO1 130243Z 18008KT 27/09 A299 RMK A01 T02660092  RH  033%=      5-min Rain = 0
KCO1 130244Z 18009KT 26/09 A299 RMK A01 T02640094  RH  034%=      5-min Rain = 0
KCO1 130245Z 18009KT 26/10 A299 RMK A01 T02630095  RH  035%=      5-min Rain = 0
KCO1 130246Z 18009KT 26/10 A299 RMK A01 T02620095  RH  035%=      5-min Rain = 0
KCO1 130247Z 18009KT 26/10 A299 RMK A01 T02610095  RH  035%=      5-min Rain = 0
KCO1 130248Z 18009KT 26/10 A299 RMK A01 T02600096  RH  035%=      5-min Rain = 0
KCO1 130249Z 18009KT 26/10 A299 RMK A01 T02600096  RH  036%=      5-min Rain = 0
KCO1 130250Z 18009KT 26/10 A299 RMK A01 T02590096  RH  036%=      5-min Rain = 0
KCO1 130251Z 18009KT 26/10 A299 RMK A01 T02590097  RH  036%=      5-min Rain = 0
KCO1 130252Z 18008KT 26/10 A299 RMK A01 T02580096  RH  036%=      5-min Rain = 0
KCO1 130253Z 18008KT 26/10 A299 RMK A01 T02580096  RH  036%=      5-min Rain = 0
KCO1 130254Z 18008KT 26/10 A299 RMK A01 T02580096  RH  036%=      5-min Rain = 0
KCO1 130255Z 18008KT 26/10 A299 RMK A01 T02580095  RH  036%=      5-min Rain = 0
KCO1 130256Z 18008KT 26/09 A299 RMK A01 T02580094  RH  035%=      5-min Rain = 0
KCO1 130257Z 18008KT 26/09 A299 RMK A01 T02580093  RH  035%=      5-min Rain = 0
KCO1 130258Z 18008KT 26/09 A299 RMK A01 T02590093  RH  035%=      5-min Rain = 0
KCO1 130259Z 18008KT 26/09 A299 RMK A01 T02590093  RH  035%=      5-min Rain = 0
KCO1 130300Z 18008KT 26/09 A299 RMK A01 T02580093  RH  035%=      5-min Rain = 0
KCO1 130301Z 18008KT 26/09 A299 RMK A01 T02590093  RH  035%=      5-min Rain = 0
KCO1 130302Z 18008KT 26/09 A299 RMK A01 T02590093  RH  035%=      5-min Rain = 0
KCO1 130303Z 18007KT 26/09 A299 RMK A01 T02590092  RH  035%=      5-min Rain = 0
KCO1 130304Z 18008KT 26/09 A299 RMK A01 T02590092  RH  035%=      5-min Rain = 0
KCO1 130305Z 18007KT 26/09 A299 RMK A01 T02600091  RH  034%=      5-min Rain = 0
KCO1 130306Z 18007KT 26/09 A299 RMK A01 T02600091  RH  034%=      5-min Rain = 0
KCO1 130307Z 18007KT 26/09 A299 RMK A01 T02590092  RH  035%=      5-min Rain = 0
KCO1 130308Z 18007KT 26/09 A299 RMK A01 T02570091  RH  035%=      5-min Rain = 0
KCO1 130309Z 19006KT 26/09 A299 RMK A01 T02560091  RH  035%=      5-min Rain = 0
KCO1 130310Z 19007KT 26/09 A299 RMK A01 T02560091  RH  035%=      5-min Rain = 0
KCO1 130311Z 19007KT 26/09 A299 RMK A01 T02550091  RH  036%=      5-min Rain = 0
KCO1 130312Z 18007KT 25/09 A299 RMK A01 T02530092  RH  036%=      5-min Rain = 0
KCO1 130313Z 18007KT 25/09 A299 RMK A01 T02510092  RH  036%=      5-min Rain = 0
KCO1 130314Z 18007KT 25/09 A299 RMK A01 T02500092  RH  037%=      5-min Rain = 0
KCO1 130315Z 18007KT 25/09 A299 RMK A01 T02500092  RH  037%=      5-min Rain = 0
KCO1 130316Z 18007KT 25/09 A299 RMK A01 T02490092  RH  037%=      5-min Rain = 0
KCO1 130317Z 18007KT 25/09 A299 RMK A01 T02490092  RH  037%=      5-min Rain = 0
KCO1 130318Z 18007KT 25/09 A299 RMK A01 T02490092  RH  037%=      5-min Rain = 0
KCO1 130319Z 18007KT 25/09 A299 RMK A01 T02490091  RH  037%=      5-min Rain = 0
KCO1 130320Z 18008KT 25/09 A299 RMK A01 T02490091  RH  037%=      5-min Rain = 0
KCO1 130321Z 18007KT 25/09 A299 RMK A01 T02490090  RH  036%=      5-min Rain = 0
KCO1 130322Z 18007KT 25/09 A299 RMK A01 T02490090  RH  036%=      5-min Rain = 0
KCO1 130323Z 18007KT 25/09 A299 RMK A01 T02490090  RH  036%=      5-min Rain = 0
KCO1 130324Z 18007KT 25/09 A299 RMK A01 T02490090  RH  036%=      5-min Rain = 0
KCO1 130325Z 18007KT 25/09 A299 RMK A01 T02480089  RH  036%=      5-min Rain = 0
KCO1 130326Z 18007KT 25/09 A299 RMK A01 T02480089  RH  036%=      5-min Rain = 0
KCO1 130327Z 18007KT 25/09 A299 RMK A01 T02480089  RH  036%=      5-min Rain = 0
KCO1 130328Z 18007KT 25/09 A299 RMK A01 T02490089  RH  036%=      5-min Rain = 0
KCO1 130329Z 18008KT 25/09 A299 RMK A01 T02490089  RH  036%=      5-min Rain = 0
KCO1 130330Z 18008KT 25/09 A299 RMK A01 T02490090  RH  036%=      5-min Rain = 0
KCO1 130331Z 18008KT 25/09 A299 RMK A01 T02490089  RH  036%=      5-min Rain = 0
KCO1 130332Z 18009KT 25/09 A299 RMK A01 T02490088  RH  036%=      5-min Rain = 0
KCO1 130333Z 18009KT 25/09 A299 RMK A01 T02500087  RH  036%=      5-min Rain = 0
KCO1 130334Z 19008KT 25/09 A299 RMK A01 T02510087  RH  035%=      5-min Rain = 0
KCO1 130335Z 19008KT 25/09 A299 RMK A01 T02520086  RH  035%=      5-min Rain = 0
KCO1 130336Z 19007KT 25/09 A299 RMK A01 T02520086  RH  035%=      5-min Rain = 0
KCO1 130337Z 19007KT 25/09 A299 RMK A01 T02510087  RH  035%=      5-min Rain = 0
KCO1 130338Z 18008KT 25/09 A299 RMK A01 T02500089  RH  036%=      5-min Rain = 0
KCO1 130339Z 18008KT 25/09 A299 RMK A01 T02480089  RH  036%=      5-min Rain = 0
KCO1 130340Z 18008KT 25/09 A299 RMK A01 T02470090  RH  037%=      5-min Rain = 0
KCO1 130341Z 18008KT 25/09 A299 RMK A01 T02460090  RH  037%=      5-min Rain = 0
KCO1 130342Z 19008KT 24/09 A299 RMK A01 T02440090  RH  037%=      5-min Rain = 0
KCO1 130343Z 19008KT 24/09 A299 RMK A01 T02440090  RH  038%=      5-min Rain = 0
KCO1 130344Z 19008KT 24/09 A299 RMK A01 T02440090  RH  038%=      5-min Rain = 0
KCO1 130345Z 19008KT 24/09 A299 RMK A01 T02430091  RH  038%=      5-min Rain = 0
KCO1 130346Z 19008KT 24/09 A299 RMK A01 T02430091  RH  038%=      5-min Rain = 0
KCO1 130347Z 19008KT 24/09 A299 RMK A01 T02420090  RH  038%=      5-min Rain = 0
KCO1 130348Z 19007KT 24/09 A299 RMK A01 T02410091  RH  038%=      5-min Rain = 0
KCO1 130349Z 19007KT 24/09 A299 RMK A01 T02400091  RH  039%=      5-min Rain = 0
KCO1 130350Z 19008KT 24/09 A299 RMK A01 T02390091  RH  039%=      5-min Rain = 0
KCO1 130351Z 19008KT 24/09 A299 RMK A01 T02380091  RH  039%=      5-min Rain = 0
KCO1 130352Z 19008KT 24/09 A299 RMK A01 T02370090  RH  039%=      5-min Rain = 0
KCO1 130353Z 19008KT 24/09 A299 RMK A01 T02370089  RH  039%=      5-min Rain = 0
KCO1 130354Z 19008KT 24/09 A299 RMK A01 T02370089  RH  039%=      5-min Rain = 0
KCO1 130355Z 19007KT 24/09 A299 RMK A01 T02370088  RH  039%=      5-min Rain = 0
KCO1 130356Z 19008KT 24/09 A299 RMK A01 T02370087  RH  038%=      5-min Rain = 0
KCO1 130357Z 19008KT 24/09 A299 RMK A01 T02370087  RH  038%=      5-min Rain = 0
KCO1 130358Z 18008KT 24/09 A299 RMK A01 T02380087  RH  038%=      5-min Rain = 0
KCO1 130359Z 18008KT 24/09 A299 RMK A01 T02380086  RH  038%=      5-min Rain = 0
KCO1 130400Z 18008KT 24/09 A299 RMK A01 T02390086  RH  038%=      5-min Rain = 0
KCO1 130401Z 18009KT 24/09 A299 RMK A01 T02390085  RH  038%=      5-min Rain = 0
KCO1 130402Z 18009KT 24/09 A299 RMK A01 T02400085  RH  037%=      5-min Rain = 0
KCO1 130403Z 18009KT 24/09 A299 RMK A01 T02400085  RH  037%=      5-min Rain = 0
KCO1 130404Z 18009KT 24/08 A299 RMK A01 T02410084  RH  037%=      5-min Rain = 0
KCO1 130405Z 18009KT 24/08 A299 RMK A01 T02420084  RH  036%=      5-min Rain = 0
KCO1 130406Z 18009KT 24/08 A299 RMK A01 T02430083  RH  036%=      5-min Rain = 0
KCO1 130407Z 18009KT 24/08 A299 RMK A01 T02440083  RH  036%=      5-min Rain = 0
KCO1 130408Z 18009KT 25/08 A299 RMK A01 T02450083  RH  036%=      5-min Rain = 0
KCO1 130409Z 18009KT 25/08 A299 RMK A01 T02460083  RH  035%=      5-min Rain = 0
KCO1 130410Z 18008KT 25/08 A299 RMK A01 T02460082  RH  035%=      5-min Rain = 0
KCO1 130411Z 18008KT 25/08 A299 RMK A01 T02460083  RH  035%=      5-min Rain = 0
KCO1 130412Z 18008KT 25/08 A299 RMK A01 T02460083  RH  035%=      5-min Rain = 0
KCO1 130413Z 18008KT 25/08 A299 RMK A01 T02450083  RH  036%=      5-min Rain = 0
KCO1 130414Z 18008KT 25/08 A299 RMK A01 T02450083  RH  036%=      5-min Rain = 0
KCO1 130415Z 18008KT 25/08 A299 RMK A01 T02450083  RH  036%=      5-min Rain = 0
KCO1 130416Z 18008KT 24/08 A299 RMK A01 T02440083  RH  036%=      5-min Rain = 0
KCO1 130417Z 18008KT 24/08 A299 RMK A01 T02430083  RH  036%=      5-min Rain = 0
KCO1 130418Z 19008KT 24/08 A299 RMK A01 T02420082  RH  036%=      5-min Rain = 0
KCO1 130419Z 18008KT 24/08 A299 RMK A01 T02420082  RH  036%=      5-min Rain = 0
KCO1 130420Z 18008KT 24/08 A299 RMK A01 T02410082  RH  036%=      5-min Rain = 0
KCO1 130421Z 18008KT 24/08 A299 RMK A01 T02410082  RH  036%=      5-min Rain = 0
KCO1 130422Z 18008KT 24/08 A299 RMK A01 T02410082  RH  036%=      5-min Rain = 0
KCO1 130423Z 18008KT 24/08 A299 RMK A01 T02400082  RH  036%=      5-min Rain = 0
KCO1 130424Z 18008KT 24/08 A299 RMK A01 T02400082  RH  036%=      5-min Rain = 0
KCO1 130425Z 18008KT 24/08 A299 RMK A01 T02400082  RH  037%=      5-min Rain = 0
KCO1 130426Z 18008KT 24/08 A299 RMK A01 T02400083  RH  037%=      5-min Rain = 0
KCO1 130427Z 18008KT 24/08 A299 RMK A01 T02400084  RH  037%=      5-min Rain = 0
KCO1 130428Z 18008KT 24/08 A299 RMK A01 T02390084  RH  037%=      5-min Rain = 0
KCO1 130429Z 18007KT 24/09 A299 RMK A01 T02390085  RH  037%=      5-min Rain = 0
KCO1 130430Z 18007KT 24/09 A299 RMK A01 T02380085  RH  037%=      5-min Rain = 0
KCO1 130431Z 18007KT 24/08 A299 RMK A01 T02380084  RH  037%=      5-min Rain = 0
KCO1 130432Z 18007KT 24/08 A299 RMK A01 T02380082  RH  037%=      5-min Rain = 0
KCO1 130433Z 18007KT 24/08 A299 RMK A01 T02380081  RH  037%=      5-min Rain = 0
KCO1 130434Z 18007KT 24/08 A299 RMK A01 T02390082  RH  037%=      5-min Rain = 0
KCO1 130435Z 18007KT 24/08 A299 RMK A01 T02390082  RH  037%=      5-min Rain = 0
KCO1 130436Z 18007KT 24/08 A299 RMK A01 T02390083  RH  037%=      5-min Rain = 0
KCO1 130437Z 18007KT 24/08 A299 RMK A01 T02390083  RH  037%=      5-min Rain = 0
KCO1 130438Z 18007KT 24/08 A299 RMK A01 T02390083  RH  037%=      5-min Rain = 0
KCO1 130439Z 18007KT 24/08 A299 RMK A01 T02390083  RH  037%=      5-min Rain = 0
KCO1 130440Z 18007KT 24/08 A299 RMK A01 T02390083  RH  037%=      5-min Rain = 0
KCO1 130441Z 18007KT 24/08 A299 RMK A01 T02390083  RH  037%=      5-min Rain = 0
KCO1 130442Z 18007KT 24/08 A299 RMK A01 T02390082  RH  037%=      5-min Rain = 0
KCO1 130443Z 17007KT 24/08 A299 RMK A01 T02390081  RH  036%=      5-min Rain = 0
KCO1 130444Z 18007KT 24/08 A299 RMK A01 T02400080  RH  036%=      5-min Rain = 0
KCO1 130445Z 18008KT 24/08 A299 RMK A01 T02420079  RH  035%=      5-min Rain = 0
KCO1 130446Z 18007KT 24/08 A299 RMK A01 T02440079  RH  035%=      5-min Rain = 0
KCO1 130447Z 18006KT 25/08 A299 RMK A01 T02450078  RH  034%=      5-min Rain = 0
KCO1 130448Z 18006KT 25/08 A299 RMK A01 T02460078  RH  034%=      5-min Rain = 0
KCO1 130449Z 18006KT 25/08 A299 RMK A01 T02470079  RH  034%=      5-min Rain = 0
KCO1 130450Z 18006KT 25/08 A299 RMK A01 T02470081  RH  035%=      5-min Rain = 0
KCO1 130451Z 18007KT 25/08 A299 RMK A01 T02460083  RH  035%=      5-min Rain = 0
KCO1 130452Z 18008KT 25/08 A299 RMK A01 T02450083  RH  036%=      5-min Rain = 0
KCO1 130453Z 18008KT 24/08 A299 RMK A01 T02420084  RH  037%=      5-min Rain = 0
KCO1 130454Z 18009KT 24/09 A299 RMK A01 T02400085  RH  037%=      5-min Rain = 0
KCO1 130455Z 18008KT 24/09 A299 RMK A01 T02380085  RH  037%=      5-min Rain = 0
KCO1 130456Z 18009KT 24/08 A299 RMK A01 T02380084  RH  037%=      5-min Rain = 0
KCO1 130457Z 18009KT 24/08 A299 RMK A01 T02380083  RH  037%=      5-min Rain = 0
KCO1 130458Z 18009KT 24/08 A299 RMK A01 T02390082  RH  037%=      5-min Rain = 0
KCO1 130459Z 18009KT 24/08 A299 RMK A01 T02400082  RH  036%=      5-min Rain = 0

Page generated in 0.1522 seconds.